<?xml version="1.0" encoding="UTF-8" standalone="no" ?>
<gpx xmlns="http://www.topografix.com/GPX/1/1" xmlns:xsi="http://www.w3.org/2001/XMLSchema-instance" xsi:schemaLocation="http://www.topografix.com/GPX/1/1 http://www.topografix.com/GPX/1/1/gpx.xsd" version="1.1" creator="VisuGPX - https://www.visugpx.com">
  <metadata>
    <name>Le pic de Bernardez et le pic de Salernes depuis la maison forestière de Bellevue</name>
  </metadata>
  <trk>
    <name><![CDATA[21/08/2021 09:40:58  Le pic de Bernardez et le pic de Salernes depuis la maison forestière de Bellevue]]></name>
    <extensions>
      <line xmlns="http://www.topografix.com/GPX/gpx_style/0/2">
        <color>0000FF</color>
        <width>4</width>
      </line>
    </extensions>
    <trkseg>
      <trkpt lat="44.35828" lon="6.39129">
        <ele>1616.1999511719</ele>
        <time>2021-08-21T07:40:58Z</time>
      </trkpt>
      <trkpt lat="44.35827" lon="6.39129">
        <ele>1616.1999511719</ele>
        <time>2021-08-21T07:40:59Z</time>
      </trkpt>
      <trkpt lat="44.35825" lon="6.39127">
        <ele>1616</ele>
        <time>2021-08-21T07:41:10Z</time>
      </trkpt>
      <trkpt lat="44.35831" lon="6.39135">
        <ele>1615.8000488281</ele>
        <time>2021-08-21T07:41:33Z</time>
      </trkpt>
      <trkpt lat="44.35846" lon="6.39121">
        <ele>1615.5999755859</ele>
        <time>2021-08-21T07:42:02Z</time>
      </trkpt>
      <trkpt lat="44.35849" lon="6.39113">
        <ele>1615.4000244141</ele>
        <time>2021-08-21T07:42:08Z</time>
      </trkpt>
      <trkpt lat="44.35866" lon="6.39107">
        <ele>1616.1999511719</ele>
        <time>2021-08-21T07:42:35Z</time>
      </trkpt>
      <trkpt lat="44.35884" lon="6.39108">
        <ele>1617</ele>
        <time>2021-08-21T07:42:59Z</time>
      </trkpt>
      <trkpt lat="44.35901" lon="6.39106">
        <ele>1618.8000488281</ele>
        <time>2021-08-21T07:43:21Z</time>
      </trkpt>
      <trkpt lat="44.35894" lon="6.39123">
        <ele>1621.4000244141</ele>
        <time>2021-08-21T07:43:40Z</time>
      </trkpt>
      <trkpt lat="44.35891" lon="6.39153">
        <ele>1623</ele>
        <time>2021-08-21T07:44:07Z</time>
      </trkpt>
      <trkpt lat="44.35878" lon="6.39173">
        <ele>1626</ele>
        <time>2021-08-21T07:44:29Z</time>
      </trkpt>
      <trkpt lat="44.35874" lon="6.39193">
        <ele>1629</ele>
        <time>2021-08-21T07:44:44Z</time>
      </trkpt>
      <trkpt lat="44.35869" lon="6.39212">
        <ele>1631.8000488281</ele>
        <time>2021-08-21T07:45:04Z</time>
      </trkpt>
      <trkpt lat="44.35866" lon="6.39215">
        <ele>1632.4000244141</ele>
        <time>2021-08-21T07:45:08Z</time>
      </trkpt>
      <trkpt lat="44.35855" lon="6.39229">
        <ele>1635.4000244141</ele>
        <time>2021-08-21T07:45:28Z</time>
      </trkpt>
      <trkpt lat="44.35865" lon="6.39235">
        <ele>1638.5999755859</ele>
        <time>2021-08-21T07:45:48Z</time>
      </trkpt>
      <trkpt lat="44.35874" lon="6.39239">
        <ele>1641.5999755859</ele>
        <time>2021-08-21T07:46:09Z</time>
      </trkpt>
      <trkpt lat="44.35873" lon="6.39263">
        <ele>1644.5999755859</ele>
        <time>2021-08-21T07:46:28Z</time>
      </trkpt>
      <trkpt lat="44.35871" lon="6.39289">
        <ele>1647.8000488281</ele>
        <time>2021-08-21T07:46:51Z</time>
      </trkpt>
      <trkpt lat="44.35864" lon="6.39308">
        <ele>1650.8000488281</ele>
        <time>2021-08-21T07:47:14Z</time>
      </trkpt>
      <trkpt lat="44.35865" lon="6.39308">
        <ele>1650.8000488281</ele>
        <time>2021-08-21T07:47:15Z</time>
      </trkpt>
      <trkpt lat="44.3588" lon="6.39303">
        <ele>1653</ele>
        <time>2021-08-21T07:47:33Z</time>
      </trkpt>
      <trkpt lat="44.35888" lon="6.39305">
        <ele>1654.4000244141</ele>
        <time>2021-08-21T07:47:42Z</time>
      </trkpt>
      <trkpt lat="44.35897" lon="6.39296">
        <ele>1656.5999755859</ele>
        <time>2021-08-21T07:47:57Z</time>
      </trkpt>
      <trkpt lat="44.35908" lon="6.39311">
        <ele>1659.5999755859</ele>
        <time>2021-08-21T07:48:15Z</time>
      </trkpt>
      <trkpt lat="44.35912" lon="6.39346">
        <ele>1662.8000488281</ele>
        <time>2021-08-21T07:48:43Z</time>
      </trkpt>
      <trkpt lat="44.35912" lon="6.39366">
        <ele>1665.1999511719</ele>
        <time>2021-08-21T07:49:00Z</time>
      </trkpt>
      <trkpt lat="44.35909" lon="6.39385">
        <ele>1668</ele>
        <time>2021-08-21T07:49:20Z</time>
      </trkpt>
      <trkpt lat="44.35895" lon="6.39391">
        <ele>1670.1999511719</ele>
        <time>2021-08-21T07:49:35Z</time>
      </trkpt>
      <trkpt lat="44.35876" lon="6.39397">
        <ele>1670.5999755859</ele>
        <time>2021-08-21T07:49:53Z</time>
      </trkpt>
      <trkpt lat="44.35864" lon="6.39397">
        <ele>1672.1999511719</ele>
        <time>2021-08-21T07:50:10Z</time>
      </trkpt>
      <trkpt lat="44.35846" lon="6.394">
        <ele>1674</ele>
        <time>2021-08-21T07:50:34Z</time>
      </trkpt>
      <trkpt lat="44.35831" lon="6.39412">
        <ele>1677.1999511719</ele>
        <time>2021-08-21T07:51:01Z</time>
      </trkpt>
      <trkpt lat="44.35825" lon="6.3944">
        <ele>1680</ele>
        <time>2021-08-21T07:51:28Z</time>
      </trkpt>
      <trkpt lat="44.35834" lon="6.39441">
        <ele>1682.4000244141</ele>
        <time>2021-08-21T07:51:44Z</time>
      </trkpt>
      <trkpt lat="44.35857" lon="6.39444">
        <ele>1685.5999755859</ele>
        <time>2021-08-21T07:52:13Z</time>
      </trkpt>
      <trkpt lat="44.35875" lon="6.39446">
        <ele>1688.1999511719</ele>
        <time>2021-08-21T07:52:39Z</time>
      </trkpt>
      <trkpt lat="44.3588" lon="6.39447">
        <ele>1689.1999511719</ele>
        <time>2021-08-21T07:52:46Z</time>
      </trkpt>
      <trkpt lat="44.3589" lon="6.39449">
        <ele>1690.5999755859</ele>
        <time>2021-08-21T07:52:56Z</time>
      </trkpt>
      <trkpt lat="44.35884" lon="6.39461">
        <ele>1692.8000488281</ele>
        <time>2021-08-21T07:53:14Z</time>
      </trkpt>
      <trkpt lat="44.35874" lon="6.39486">
        <ele>1694.8000488281</ele>
        <time>2021-08-21T07:53:40Z</time>
      </trkpt>
      <trkpt lat="44.35897" lon="6.39481">
        <ele>1697.4000244141</ele>
        <time>2021-08-21T07:54:05Z</time>
      </trkpt>
      <trkpt lat="44.35915" lon="6.39462">
        <ele>1699.8000488281</ele>
        <time>2021-08-21T07:54:32Z</time>
      </trkpt>
      <trkpt lat="44.35931" lon="6.3945">
        <ele>1702.8000488281</ele>
        <time>2021-08-21T07:54:53Z</time>
      </trkpt>
      <trkpt lat="44.35953" lon="6.39428">
        <ele>1703.8000488281</ele>
        <time>2021-08-21T07:55:19Z</time>
      </trkpt>
      <trkpt lat="44.35968" lon="6.39406">
        <ele>1705.8000488281</ele>
        <time>2021-08-21T07:55:49Z</time>
      </trkpt>
      <trkpt lat="44.35983" lon="6.39384">
        <ele>1706.1999511719</ele>
        <time>2021-08-21T07:56:15Z</time>
      </trkpt>
      <trkpt lat="44.35987" lon="6.39375">
        <ele>1707</ele>
        <time>2021-08-21T07:56:24Z</time>
      </trkpt>
      <trkpt lat="44.35989" lon="6.3937">
        <ele>1707.1999511719</ele>
        <time>2021-08-21T07:56:30Z</time>
      </trkpt>
      <trkpt lat="44.35992" lon="6.39368">
        <ele>1707.1999511719</ele>
        <time>2021-08-21T07:56:32Z</time>
      </trkpt>
      <trkpt lat="44.35994" lon="6.39367">
        <ele>1707.1999511719</ele>
        <time>2021-08-21T07:56:34Z</time>
      </trkpt>
      <trkpt lat="44.36001" lon="6.39365">
        <ele>1707.4000244141</ele>
        <time>2021-08-21T07:56:39Z</time>
      </trkpt>
      <trkpt lat="44.36005" lon="6.39363">
        <ele>1708</ele>
        <time>2021-08-21T07:56:44Z</time>
      </trkpt>
      <trkpt lat="44.3604" lon="6.3936">
        <ele>1710.1999511719</ele>
        <time>2021-08-21T07:57:12Z</time>
      </trkpt>
      <trkpt lat="44.36069" lon="6.39362">
        <ele>1712.1999511719</ele>
        <time>2021-08-21T07:57:40Z</time>
      </trkpt>
      <trkpt lat="44.36089" lon="6.39353">
        <ele>1714.1999511719</ele>
        <time>2021-08-21T07:58:03Z</time>
      </trkpt>
      <trkpt lat="44.36109" lon="6.39354">
        <ele>1716.1999511719</ele>
        <time>2021-08-21T07:58:29Z</time>
      </trkpt>
      <trkpt lat="44.36105" lon="6.39371">
        <ele>1718.4000244141</ele>
        <time>2021-08-21T07:58:49Z</time>
      </trkpt>
      <trkpt lat="44.36086" lon="6.39404">
        <ele>1721.5999755859</ele>
        <time>2021-08-21T07:59:18Z</time>
      </trkpt>
      <trkpt lat="44.36079" lon="6.39429">
        <ele>1724.5999755859</ele>
        <time>2021-08-21T07:59:44Z</time>
      </trkpt>
      <trkpt lat="44.36073" lon="6.39456">
        <ele>1727.8000488281</ele>
        <time>2021-08-21T08:00:09Z</time>
      </trkpt>
      <trkpt lat="44.36056" lon="6.39491">
        <ele>1730.8000488281</ele>
        <time>2021-08-21T08:00:41Z</time>
      </trkpt>
      <trkpt lat="44.36055" lon="6.39509">
        <ele>1731.8000488281</ele>
        <time>2021-08-21T08:00:52Z</time>
      </trkpt>
      <trkpt lat="44.36049" lon="6.39522">
        <ele>1733.8000488281</ele>
        <time>2021-08-21T08:01:08Z</time>
      </trkpt>
      <trkpt lat="44.36046" lon="6.39522">
        <ele>1734</ele>
        <time>2021-08-21T08:01:11Z</time>
      </trkpt>
      <trkpt lat="44.36045" lon="6.39524">
        <ele>1734.4000244141</ele>
        <time>2021-08-21T08:01:14Z</time>
      </trkpt>
      <trkpt lat="44.36034" lon="6.39553">
        <ele>1737.8000488281</ele>
        <time>2021-08-21T08:01:41Z</time>
      </trkpt>
      <trkpt lat="44.36023" lon="6.39571">
        <ele>1740.8000488281</ele>
        <time>2021-08-21T08:02:03Z</time>
      </trkpt>
      <trkpt lat="44.36013" lon="6.39593">
        <ele>1743.8000488281</ele>
        <time>2021-08-21T08:02:25Z</time>
      </trkpt>
      <trkpt lat="44.36005" lon="6.39605">
        <ele>1747</ele>
        <time>2021-08-21T08:02:48Z</time>
      </trkpt>
      <trkpt lat="44.36008" lon="6.39605">
        <ele>1747.8000488281</ele>
        <time>2021-08-21T08:03:01Z</time>
      </trkpt>
      <trkpt lat="44.36003" lon="6.39628">
        <ele>1749.8000488281</ele>
        <time>2021-08-21T08:03:27Z</time>
      </trkpt>
      <trkpt lat="44.36007" lon="6.39628">
        <ele>1749.8000488281</ele>
        <time>2021-08-21T08:03:40Z</time>
      </trkpt>
      <trkpt lat="44.36007" lon="6.39626">
        <ele>1749.8000488281</ele>
        <time>2021-08-21T08:03:44Z</time>
      </trkpt>
      <trkpt lat="44.36002" lon="6.39629">
        <ele>1749.8000488281</ele>
        <time>2021-08-21T08:03:55Z</time>
      </trkpt>
      <trkpt lat="44.35999" lon="6.39651">
        <ele>1751.1999511719</ele>
        <time>2021-08-21T08:04:18Z</time>
      </trkpt>
      <trkpt lat="44.36004" lon="6.39677">
        <ele>1754.1999511719</ele>
        <time>2021-08-21T08:04:42Z</time>
      </trkpt>
      <trkpt lat="44.3601" lon="6.39696">
        <ele>1757.4000244141</ele>
        <time>2021-08-21T08:05:01Z</time>
      </trkpt>
      <trkpt lat="44.36018" lon="6.39716">
        <ele>1760.5999755859</ele>
        <time>2021-08-21T08:05:20Z</time>
      </trkpt>
      <trkpt lat="44.36027" lon="6.39737">
        <ele>1763.5999755859</ele>
        <time>2021-08-21T08:05:40Z</time>
      </trkpt>
      <trkpt lat="44.36045" lon="6.39758">
        <ele>1766.8000488281</ele>
        <time>2021-08-21T08:06:07Z</time>
      </trkpt>
      <trkpt lat="44.36059" lon="6.39772">
        <ele>1769.8000488281</ele>
        <time>2021-08-21T08:06:28Z</time>
      </trkpt>
      <trkpt lat="44.36073" lon="6.39785">
        <ele>1772.8000488281</ele>
        <time>2021-08-21T08:06:48Z</time>
      </trkpt>
      <trkpt lat="44.36089" lon="6.39777">
        <ele>1775.5999755859</ele>
        <time>2021-08-21T08:07:14Z</time>
      </trkpt>
      <trkpt lat="44.36087" lon="6.39747">
        <ele>1778.8000488281</ele>
        <time>2021-08-21T08:07:35Z</time>
      </trkpt>
      <trkpt lat="44.36093" lon="6.39716">
        <ele>1781.4000244141</ele>
        <time>2021-08-21T08:08:03Z</time>
      </trkpt>
      <trkpt lat="44.36107" lon="6.39682">
        <ele>1784</ele>
        <time>2021-08-21T08:08:31Z</time>
      </trkpt>
      <trkpt lat="44.36124" lon="6.39653">
        <ele>1786.5999755859</ele>
        <time>2021-08-21T08:08:57Z</time>
      </trkpt>
      <trkpt lat="44.36142" lon="6.39619">
        <ele>1789</ele>
        <time>2021-08-21T08:09:28Z</time>
      </trkpt>
      <trkpt lat="44.36152" lon="6.39589">
        <ele>1791.4000244141</ele>
        <time>2021-08-21T08:09:52Z</time>
      </trkpt>
      <trkpt lat="44.36174" lon="6.39575">
        <ele>1792.8000488281</ele>
        <time>2021-08-21T08:10:16Z</time>
      </trkpt>
      <trkpt lat="44.36199" lon="6.39556">
        <ele>1795.4000244141</ele>
        <time>2021-08-21T08:10:42Z</time>
      </trkpt>
      <trkpt lat="44.36214" lon="6.39557">
        <ele>1798.1999511719</ele>
        <time>2021-08-21T08:11:07Z</time>
      </trkpt>
      <trkpt lat="44.36213" lon="6.3956">
        <ele>1799</ele>
        <time>2021-08-21T08:11:44Z</time>
      </trkpt>
      <trkpt lat="44.36214" lon="6.39586">
        <ele>1801.1999511719</ele>
        <time>2021-08-21T08:12:06Z</time>
      </trkpt>
      <trkpt lat="44.36208" lon="6.39608">
        <ele>1803.8000488281</ele>
        <time>2021-08-21T08:12:27Z</time>
      </trkpt>
      <trkpt lat="44.36202" lon="6.39639">
        <ele>1806.8000488281</ele>
        <time>2021-08-21T08:12:55Z</time>
      </trkpt>
      <trkpt lat="44.36205" lon="6.39651">
        <ele>1810</ele>
        <time>2021-08-21T08:13:18Z</time>
      </trkpt>
      <trkpt lat="44.36216" lon="6.39624">
        <ele>1812.5999755859</ele>
        <time>2021-08-21T08:13:44Z</time>
      </trkpt>
      <trkpt lat="44.36216" lon="6.39624">
        <ele>1812.8000488281</ele>
        <time>2021-08-21T08:13:45Z</time>
      </trkpt>
      <trkpt lat="44.36226" lon="6.39648">
        <ele>1815.4000244141</ele>
        <time>2021-08-21T08:14:10Z</time>
      </trkpt>
      <trkpt lat="44.36219" lon="6.39674">
        <ele>1818</ele>
        <time>2021-08-21T08:14:34Z</time>
      </trkpt>
      <trkpt lat="44.3621" lon="6.3969">
        <ele>1821</ele>
        <time>2021-08-21T08:14:56Z</time>
      </trkpt>
      <trkpt lat="44.36214" lon="6.39697">
        <ele>1824</ele>
        <time>2021-08-21T08:15:18Z</time>
      </trkpt>
      <trkpt lat="44.36233" lon="6.39676">
        <ele>1826.5999755859</ele>
        <time>2021-08-21T08:15:42Z</time>
      </trkpt>
      <trkpt lat="44.36253" lon="6.39655">
        <ele>1829.5999755859</ele>
        <time>2021-08-21T08:16:08Z</time>
      </trkpt>
      <trkpt lat="44.36264" lon="6.39629">
        <ele>1832</ele>
        <time>2021-08-21T08:16:31Z</time>
      </trkpt>
      <trkpt lat="44.36281" lon="6.39613">
        <ele>1834.1999511719</ele>
        <time>2021-08-21T08:16:55Z</time>
      </trkpt>
      <trkpt lat="44.3629" lon="6.39605">
        <ele>1835.5999755859</ele>
        <time>2021-08-21T08:17:09Z</time>
      </trkpt>
      <trkpt lat="44.36312" lon="6.39591">
        <ele>1837.8000488281</ele>
        <time>2021-08-21T08:17:35Z</time>
      </trkpt>
      <trkpt lat="44.36331" lon="6.39585">
        <ele>1839</ele>
        <time>2021-08-21T08:17:59Z</time>
      </trkpt>
      <trkpt lat="44.36346" lon="6.39579">
        <ele>1842.1999511719</ele>
        <time>2021-08-21T08:18:19Z</time>
      </trkpt>
      <trkpt lat="44.36365" lon="6.39579">
        <ele>1844.4000244141</ele>
        <time>2021-08-21T08:18:39Z</time>
      </trkpt>
      <trkpt lat="44.36385" lon="6.39589">
        <ele>1846.8000488281</ele>
        <time>2021-08-21T08:19:04Z</time>
      </trkpt>
      <trkpt lat="44.364" lon="6.39603">
        <ele>1847.8000488281</ele>
        <time>2021-08-21T08:19:20Z</time>
      </trkpt>
      <trkpt lat="44.36414" lon="6.3963">
        <ele>1850</ele>
        <time>2021-08-21T08:19:46Z</time>
      </trkpt>
      <trkpt lat="44.36415" lon="6.39634">
        <ele>1850.8000488281</ele>
        <time>2021-08-21T08:19:53Z</time>
      </trkpt>
      <trkpt lat="44.36393" lon="6.39625">
        <ele>1853.4000244141</ele>
        <time>2021-08-21T08:20:17Z</time>
      </trkpt>
      <trkpt lat="44.36377" lon="6.39621">
        <ele>1855.1999511719</ele>
        <time>2021-08-21T08:20:37Z</time>
      </trkpt>
      <trkpt lat="44.36364" lon="6.3963">
        <ele>1857.5999755859</ele>
        <time>2021-08-21T08:20:58Z</time>
      </trkpt>
      <trkpt lat="44.3637" lon="6.39651">
        <ele>1860.5999755859</ele>
        <time>2021-08-21T08:21:19Z</time>
      </trkpt>
      <trkpt lat="44.36384" lon="6.39672">
        <ele>1863.4000244141</ele>
        <time>2021-08-21T08:21:44Z</time>
      </trkpt>
      <trkpt lat="44.36395" lon="6.3969">
        <ele>1866.5999755859</ele>
        <time>2021-08-21T08:22:09Z</time>
      </trkpt>
      <trkpt lat="44.36398" lon="6.39709">
        <ele>1868.5999755859</ele>
        <time>2021-08-21T08:22:32Z</time>
      </trkpt>
      <trkpt lat="44.364" lon="6.39733">
        <ele>1871.1999511719</ele>
        <time>2021-08-21T08:22:58Z</time>
      </trkpt>
      <trkpt lat="44.36399" lon="6.39759">
        <ele>1874.1999511719</ele>
        <time>2021-08-21T08:23:25Z</time>
      </trkpt>
      <trkpt lat="44.36397" lon="6.39777">
        <ele>1876.4000244141</ele>
        <time>2021-08-21T08:23:45Z</time>
      </trkpt>
      <trkpt lat="44.36393" lon="6.39811">
        <ele>1879.4000244141</ele>
        <time>2021-08-21T08:24:15Z</time>
      </trkpt>
      <trkpt lat="44.36393" lon="6.39827">
        <ele>1881.5999755859</ele>
        <time>2021-08-21T08:24:33Z</time>
      </trkpt>
      <trkpt lat="44.36392" lon="6.39856">
        <ele>1884.8000488281</ele>
        <time>2021-08-21T08:24:58Z</time>
      </trkpt>
      <trkpt lat="44.36374" lon="6.39862">
        <ele>1887.1999511719</ele>
        <time>2021-08-21T08:25:19Z</time>
      </trkpt>
      <trkpt lat="44.36353" lon="6.39867">
        <ele>1890.1999511719</ele>
        <time>2021-08-21T08:25:46Z</time>
      </trkpt>
      <trkpt lat="44.36337" lon="6.39879">
        <ele>1892</ele>
        <time>2021-08-21T08:26:09Z</time>
      </trkpt>
      <trkpt lat="44.36334" lon="6.39897">
        <ele>1893.8000488281</ele>
        <time>2021-08-21T08:26:28Z</time>
      </trkpt>
      <trkpt lat="44.36336" lon="6.39925">
        <ele>1896.8000488281</ele>
        <time>2021-08-21T08:26:50Z</time>
      </trkpt>
      <trkpt lat="44.36339" lon="6.3995">
        <ele>1899.8000488281</ele>
        <time>2021-08-21T08:27:13Z</time>
      </trkpt>
      <trkpt lat="44.36344" lon="6.39975">
        <ele>1902.8000488281</ele>
        <time>2021-08-21T08:27:38Z</time>
      </trkpt>
      <trkpt lat="44.36348" lon="6.40001">
        <ele>1905.4000244141</ele>
        <time>2021-08-21T08:28:02Z</time>
      </trkpt>
      <trkpt lat="44.36356" lon="6.40027">
        <ele>1908.1999511719</ele>
        <time>2021-08-21T08:28:30Z</time>
      </trkpt>
      <trkpt lat="44.36372" lon="6.40041">
        <ele>1911.4000244141</ele>
        <time>2021-08-21T08:28:55Z</time>
      </trkpt>
      <trkpt lat="44.36382" lon="6.40053">
        <ele>1914.4000244141</ele>
        <time>2021-08-21T08:29:15Z</time>
      </trkpt>
      <trkpt lat="44.36386" lon="6.40071">
        <ele>1917.4000244141</ele>
        <time>2021-08-21T08:29:39Z</time>
      </trkpt>
      <trkpt lat="44.36388" lon="6.40091">
        <ele>1920.4000244141</ele>
        <time>2021-08-21T08:30:04Z</time>
      </trkpt>
      <trkpt lat="44.3639" lon="6.40104">
        <ele>1922.8000488281</ele>
        <time>2021-08-21T08:30:29Z</time>
      </trkpt>
      <trkpt lat="44.36389" lon="6.40112">
        <ele>1923.5999755859</ele>
        <time>2021-08-21T08:30:42Z</time>
      </trkpt>
      <trkpt lat="44.36387" lon="6.40128">
        <ele>1926.4000244141</ele>
        <time>2021-08-21T08:30:59Z</time>
      </trkpt>
      <trkpt lat="44.36386" lon="6.4013">
        <ele>1927</ele>
        <time>2021-08-21T08:31:02Z</time>
      </trkpt>
      <trkpt lat="44.36376" lon="6.40145">
        <ele>1929.8000488281</ele>
        <time>2021-08-21T08:31:20Z</time>
      </trkpt>
      <trkpt lat="44.36374" lon="6.40148">
        <ele>1930.4000244141</ele>
        <time>2021-08-21T08:31:22Z</time>
      </trkpt>
      <trkpt lat="44.36368" lon="6.40169">
        <ele>1933</ele>
        <time>2021-08-21T08:31:46Z</time>
      </trkpt>
      <trkpt lat="44.36365" lon="6.40174">
        <ele>1933.5999755859</ele>
        <time>2021-08-21T08:31:52Z</time>
      </trkpt>
      <trkpt lat="44.36376" lon="6.40166">
        <ele>1936.5999755859</ele>
        <time>2021-08-21T08:32:13Z</time>
      </trkpt>
      <trkpt lat="44.36397" lon="6.4016">
        <ele>1939</ele>
        <time>2021-08-21T08:32:39Z</time>
      </trkpt>
      <trkpt lat="44.364" lon="6.40157">
        <ele>1939.1999511719</ele>
        <time>2021-08-21T08:32:44Z</time>
      </trkpt>
      <trkpt lat="44.36418" lon="6.40151">
        <ele>1941</ele>
        <time>2021-08-21T08:33:09Z</time>
      </trkpt>
      <trkpt lat="44.36432" lon="6.40157">
        <ele>1942.8000488281</ele>
        <time>2021-08-21T08:33:28Z</time>
      </trkpt>
      <trkpt lat="44.36447" lon="6.40174">
        <ele>1944.1999511719</ele>
        <time>2021-08-21T08:33:54Z</time>
      </trkpt>
      <trkpt lat="44.36453" lon="6.4018">
        <ele>1945.1999511719</ele>
        <time>2021-08-21T08:34:31Z</time>
      </trkpt>
      <trkpt lat="44.36463" lon="6.4018">
        <ele>1948</ele>
        <time>2021-08-21T08:34:53Z</time>
      </trkpt>
      <trkpt lat="44.36466" lon="6.40172">
        <ele>1950.1999511719</ele>
        <time>2021-08-21T08:35:16Z</time>
      </trkpt>
      <trkpt lat="44.36463" lon="6.40166">
        <ele>1950.1999511719</ele>
        <time>2021-08-21T08:35:42Z</time>
      </trkpt>
      <trkpt lat="44.36473" lon="6.40159">
        <ele>1951</ele>
        <time>2021-08-21T08:36:14Z</time>
      </trkpt>
      <trkpt lat="44.36491" lon="6.40157">
        <ele>1952</ele>
        <time>2021-08-21T08:36:34Z</time>
      </trkpt>
      <trkpt lat="44.36512" lon="6.40159">
        <ele>1955</ele>
        <time>2021-08-21T08:36:58Z</time>
      </trkpt>
      <trkpt lat="44.3653" lon="6.40152">
        <ele>1957.8000488281</ele>
        <time>2021-08-21T08:37:26Z</time>
      </trkpt>
      <trkpt lat="44.36546" lon="6.40149">
        <ele>1960.5999755859</ele>
        <time>2021-08-21T08:37:51Z</time>
      </trkpt>
      <trkpt lat="44.36566" lon="6.40151">
        <ele>1963</ele>
        <time>2021-08-21T08:38:12Z</time>
      </trkpt>
      <trkpt lat="44.36582" lon="6.40151">
        <ele>1965.1999511719</ele>
        <time>2021-08-21T08:38:34Z</time>
      </trkpt>
      <trkpt lat="44.36601" lon="6.4016">
        <ele>1967.5999755859</ele>
        <time>2021-08-21T08:38:56Z</time>
      </trkpt>
      <trkpt lat="44.36617" lon="6.40169">
        <ele>1970.4000244141</ele>
        <time>2021-08-21T08:39:19Z</time>
      </trkpt>
      <trkpt lat="44.36628" lon="6.40184">
        <ele>1973.1999511719</ele>
        <time>2021-08-21T08:39:43Z</time>
      </trkpt>
      <trkpt lat="44.36633" lon="6.40203">
        <ele>1976</ele>
        <time>2021-08-21T08:40:08Z</time>
      </trkpt>
      <trkpt lat="44.36652" lon="6.40191">
        <ele>1978.8000488281</ele>
        <time>2021-08-21T08:40:33Z</time>
      </trkpt>
      <trkpt lat="44.36667" lon="6.40189">
        <ele>1981.1999511719</ele>
        <time>2021-08-21T08:40:57Z</time>
      </trkpt>
      <trkpt lat="44.36681" lon="6.40189">
        <ele>1984.4000244141</ele>
        <time>2021-08-21T08:41:21Z</time>
      </trkpt>
      <trkpt lat="44.36695" lon="6.40191">
        <ele>1986.8000488281</ele>
        <time>2021-08-21T08:41:46Z</time>
      </trkpt>
      <trkpt lat="44.36713" lon="6.40196">
        <ele>1989.8000488281</ele>
        <time>2021-08-21T08:42:11Z</time>
      </trkpt>
      <trkpt lat="44.36725" lon="6.40203">
        <ele>1993</ele>
        <time>2021-08-21T08:42:32Z</time>
      </trkpt>
      <trkpt lat="44.3673" lon="6.40206">
        <ele>1994.1999511719</ele>
        <time>2021-08-21T08:43:06Z</time>
      </trkpt>
      <trkpt lat="44.36724" lon="6.4021">
        <ele>1994.1999511719</ele>
        <time>2021-08-21T08:43:54Z</time>
      </trkpt>
      <trkpt lat="44.36729" lon="6.40205">
        <ele>1994</ele>
        <time>2021-08-21T08:44:46Z</time>
      </trkpt>
      <trkpt lat="44.36736" lon="6.40213">
        <ele>1993.8000488281</ele>
        <time>2021-08-21T08:45:36Z</time>
      </trkpt>
      <trkpt lat="44.36743" lon="6.40235">
        <ele>1996.8000488281</ele>
        <time>2021-08-21T08:46:03Z</time>
      </trkpt>
      <trkpt lat="44.36743" lon="6.40256">
        <ele>1999.8000488281</ele>
        <time>2021-08-21T08:46:23Z</time>
      </trkpt>
      <trkpt lat="44.36742" lon="6.4028">
        <ele>2003</ele>
        <time>2021-08-21T08:46:46Z</time>
      </trkpt>
      <trkpt lat="44.36742" lon="6.40306">
        <ele>2006</ele>
        <time>2021-08-21T08:47:06Z</time>
      </trkpt>
      <trkpt lat="44.36751" lon="6.40322">
        <ele>2009</ele>
        <time>2021-08-21T08:47:28Z</time>
      </trkpt>
      <trkpt lat="44.36766" lon="6.40334">
        <ele>2011.5999755859</ele>
        <time>2021-08-21T08:47:50Z</time>
      </trkpt>
      <trkpt lat="44.36783" lon="6.40346">
        <ele>2014.8000488281</ele>
        <time>2021-08-21T08:48:13Z</time>
      </trkpt>
      <trkpt lat="44.36791" lon="6.40352">
        <ele>2016.5999755859</ele>
        <time>2021-08-21T08:48:38Z</time>
      </trkpt>
      <trkpt lat="44.36807" lon="6.40363">
        <ele>2019.5999755859</ele>
        <time>2021-08-21T08:49:04Z</time>
      </trkpt>
      <trkpt lat="44.36819" lon="6.40371">
        <ele>2021.1999511719</ele>
        <time>2021-08-21T08:49:23Z</time>
      </trkpt>
      <trkpt lat="44.36822" lon="6.40373">
        <ele>2022.5999755859</ele>
        <time>2021-08-21T08:49:39Z</time>
      </trkpt>
      <trkpt lat="44.36823" lon="6.40376">
        <ele>2022.8000488281</ele>
        <time>2021-08-21T08:50:30Z</time>
      </trkpt>
      <trkpt lat="44.36824" lon="6.40373">
        <ele>2022.5999755859</ele>
        <time>2021-08-21T08:51:01Z</time>
      </trkpt>
      <trkpt lat="44.36828" lon="6.40378">
        <ele>2023</ele>
        <time>2021-08-21T08:51:21Z</time>
      </trkpt>
      <trkpt lat="44.36838" lon="6.40384">
        <ele>2026</ele>
        <time>2021-08-21T08:51:39Z</time>
      </trkpt>
      <trkpt lat="44.36851" lon="6.4039">
        <ele>2029.1999511719</ele>
        <time>2021-08-21T08:52:00Z</time>
      </trkpt>
      <trkpt lat="44.36866" lon="6.40391">
        <ele>2032.4000244141</ele>
        <time>2021-08-21T08:52:19Z</time>
      </trkpt>
      <trkpt lat="44.36875" lon="6.40389">
        <ele>2035.4000244141</ele>
        <time>2021-08-21T08:52:35Z</time>
      </trkpt>
      <trkpt lat="44.36882" lon="6.40389">
        <ele>2038.4000244141</ele>
        <time>2021-08-21T08:52:56Z</time>
      </trkpt>
      <trkpt lat="44.36885" lon="6.40392">
        <ele>2041.5999755859</ele>
        <time>2021-08-21T08:53:14Z</time>
      </trkpt>
      <trkpt lat="44.36889" lon="6.40394">
        <ele>2043.5999755859</ele>
        <time>2021-08-21T08:53:31Z</time>
      </trkpt>
      <trkpt lat="44.36889" lon="6.40394">
        <ele>2045</ele>
        <time>2021-08-21T08:53:42Z</time>
      </trkpt>
      <trkpt lat="44.36906" lon="6.404">
        <ele>2048.1999511719</ele>
        <time>2021-08-21T08:54:07Z</time>
      </trkpt>
      <trkpt lat="44.36903" lon="6.4041">
        <ele>2051</ele>
        <time>2021-08-21T08:54:26Z</time>
      </trkpt>
      <trkpt lat="44.3689" lon="6.40424">
        <ele>2054</ele>
        <time>2021-08-21T08:54:49Z</time>
      </trkpt>
      <trkpt lat="44.36885" lon="6.40446">
        <ele>2057.1999511719</ele>
        <time>2021-08-21T08:55:10Z</time>
      </trkpt>
      <trkpt lat="44.3688" lon="6.40458">
        <ele>2060.1999511719</ele>
        <time>2021-08-21T08:55:29Z</time>
      </trkpt>
      <trkpt lat="44.36878" lon="6.40468">
        <ele>2063.1999511719</ele>
        <time>2021-08-21T08:55:49Z</time>
      </trkpt>
      <trkpt lat="44.36877" lon="6.40476">
        <ele>2066.6000976562</ele>
        <time>2021-08-21T08:56:07Z</time>
      </trkpt>
      <trkpt lat="44.36877" lon="6.40477">
        <ele>2066.8000488281</ele>
        <time>2021-08-21T08:56:08Z</time>
      </trkpt>
      <trkpt lat="44.36872" lon="6.4049">
        <ele>2070</ele>
        <time>2021-08-21T08:56:29Z</time>
      </trkpt>
      <trkpt lat="44.36868" lon="6.405">
        <ele>2073.1999511719</ele>
        <time>2021-08-21T08:56:50Z</time>
      </trkpt>
      <trkpt lat="44.36862" lon="6.40509">
        <ele>2076.1999511719</ele>
        <time>2021-08-21T08:57:11Z</time>
      </trkpt>
      <trkpt lat="44.36852" lon="6.40519">
        <ele>2079.1999511719</ele>
        <time>2021-08-21T08:57:33Z</time>
      </trkpt>
      <trkpt lat="44.36847" lon="6.40525">
        <ele>2082</ele>
        <time>2021-08-21T08:57:55Z</time>
      </trkpt>
      <trkpt lat="44.36842" lon="6.40527">
        <ele>2083.6000976562</ele>
        <time>2021-08-21T08:58:32Z</time>
      </trkpt>
      <trkpt lat="44.36842" lon="6.40523">
        <ele>2083.3999023438</ele>
        <time>2021-08-21T08:59:12Z</time>
      </trkpt>
      <trkpt lat="44.36835" lon="6.40527">
        <ele>2083.3999023438</ele>
        <time>2021-08-21T08:59:31Z</time>
      </trkpt>
      <trkpt lat="44.36826" lon="6.40536">
        <ele>2086.3999023438</ele>
        <time>2021-08-21T08:59:50Z</time>
      </trkpt>
      <trkpt lat="44.36819" lon="6.4054">
        <ele>2089.1999511719</ele>
        <time>2021-08-21T09:00:09Z</time>
      </trkpt>
      <trkpt lat="44.36818" lon="6.40536">
        <ele>2090.6000976562</ele>
        <time>2021-08-21T09:00:39Z</time>
      </trkpt>
      <trkpt lat="44.36816" lon="6.40536">
        <ele>2090.3999023438</ele>
        <time>2021-08-21T09:01:11Z</time>
      </trkpt>
      <trkpt lat="44.36807" lon="6.40538">
        <ele>2091.6000976562</ele>
        <time>2021-08-21T09:01:32Z</time>
      </trkpt>
      <trkpt lat="44.36797" lon="6.4054">
        <ele>2094.6000976562</ele>
        <time>2021-08-21T09:01:51Z</time>
      </trkpt>
      <trkpt lat="44.36789" lon="6.40546">
        <ele>2097.8000488281</ele>
        <time>2021-08-21T09:02:10Z</time>
      </trkpt>
      <trkpt lat="44.36783" lon="6.40555">
        <ele>2100.8000488281</ele>
        <time>2021-08-21T09:02:31Z</time>
      </trkpt>
      <trkpt lat="44.36775" lon="6.40562">
        <ele>2104</ele>
        <time>2021-08-21T09:02:52Z</time>
      </trkpt>
      <trkpt lat="44.36767" lon="6.40562">
        <ele>2107</ele>
        <time>2021-08-21T09:03:11Z</time>
      </trkpt>
      <trkpt lat="44.36759" lon="6.40565">
        <ele>2110</ele>
        <time>2021-08-21T09:03:30Z</time>
      </trkpt>
      <trkpt lat="44.36753" lon="6.4057">
        <ele>2113.1999511719</ele>
        <time>2021-08-21T09:03:49Z</time>
      </trkpt>
      <trkpt lat="44.36742" lon="6.40569">
        <ele>2116.1999511719</ele>
        <time>2021-08-21T09:04:10Z</time>
      </trkpt>
      <trkpt lat="44.36733" lon="6.40573">
        <ele>2119</ele>
        <time>2021-08-21T09:04:32Z</time>
      </trkpt>
      <trkpt lat="44.36721" lon="6.40567">
        <ele>2121.3999023438</ele>
        <time>2021-08-21T09:04:49Z</time>
      </trkpt>
      <trkpt lat="44.36701" lon="6.40557">
        <ele>2123.8000488281</ele>
        <time>2021-08-21T09:05:12Z</time>
      </trkpt>
      <trkpt lat="44.3669" lon="6.40556">
        <ele>2127</ele>
        <time>2021-08-21T09:05:33Z</time>
      </trkpt>
      <trkpt lat="44.36678" lon="6.40554">
        <ele>2130</ele>
        <time>2021-08-21T09:05:50Z</time>
      </trkpt>
      <trkpt lat="44.36664" lon="6.40557">
        <ele>2133.1999511719</ele>
        <time>2021-08-21T09:06:11Z</time>
      </trkpt>
      <trkpt lat="44.36657" lon="6.40561">
        <ele>2136.1999511719</ele>
        <time>2021-08-21T09:06:28Z</time>
      </trkpt>
      <trkpt lat="44.36657" lon="6.40561">
        <ele>2136.8000488281</ele>
        <time>2021-08-21T09:07:06Z</time>
      </trkpt>
      <trkpt lat="44.36652" lon="6.40565">
        <ele>2137.1999511719</ele>
        <time>2021-08-21T09:07:34Z</time>
      </trkpt>
      <trkpt lat="44.36653" lon="6.40563">
        <ele>2138.3999023438</ele>
        <time>2021-08-21T09:08:12Z</time>
      </trkpt>
      <trkpt lat="44.36648" lon="6.4056">
        <ele>2138.3999023438</ele>
        <time>2021-08-21T09:09:51Z</time>
      </trkpt>
      <trkpt lat="44.36639" lon="6.40569">
        <ele>2139.3999023438</ele>
        <time>2021-08-21T09:10:11Z</time>
      </trkpt>
      <trkpt lat="44.3663" lon="6.4058">
        <ele>2142</ele>
        <time>2021-08-21T09:10:27Z</time>
      </trkpt>
      <trkpt lat="44.36622" lon="6.40592">
        <ele>2145</ele>
        <time>2021-08-21T09:10:45Z</time>
      </trkpt>
      <trkpt lat="44.36612" lon="6.40601">
        <ele>2148.1999511719</ele>
        <time>2021-08-21T09:11:04Z</time>
      </trkpt>
      <trkpt lat="44.366" lon="6.40611">
        <ele>2151</ele>
        <time>2021-08-21T09:11:26Z</time>
      </trkpt>
      <trkpt lat="44.36586" lon="6.40621">
        <ele>2154</ele>
        <time>2021-08-21T09:11:47Z</time>
      </trkpt>
      <trkpt lat="44.36571" lon="6.40632">
        <ele>2157.1999511719</ele>
        <time>2021-08-21T09:12:13Z</time>
      </trkpt>
      <trkpt lat="44.36555" lon="6.40643">
        <ele>2160.1999511719</ele>
        <time>2021-08-21T09:12:36Z</time>
      </trkpt>
      <trkpt lat="44.36551" lon="6.40646">
        <ele>2162.8000488281</ele>
        <time>2021-08-21T09:13:00Z</time>
      </trkpt>
      <trkpt lat="44.36543" lon="6.40649">
        <ele>2163.3999023438</ele>
        <time>2021-08-21T09:13:27Z</time>
      </trkpt>
      <trkpt lat="44.36534" lon="6.40654">
        <ele>2164.1999511719</ele>
        <time>2021-08-21T09:14:02Z</time>
      </trkpt>
      <trkpt lat="44.36521" lon="6.40663">
        <ele>2166.8000488281</ele>
        <time>2021-08-21T09:14:23Z</time>
      </trkpt>
      <trkpt lat="44.36512" lon="6.40669">
        <ele>2169.3999023438</ele>
        <time>2021-08-21T09:14:40Z</time>
      </trkpt>
      <trkpt lat="44.36507" lon="6.40672">
        <ele>2170.8000488281</ele>
        <time>2021-08-21T09:15:16Z</time>
      </trkpt>
      <trkpt lat="44.365" lon="6.40668">
        <ele>2169.8000488281</ele>
        <time>2021-08-21T09:15:39Z</time>
      </trkpt>
      <trkpt lat="44.36498" lon="6.40668">
        <ele>2168.8000488281</ele>
        <time>2021-08-21T09:16:07Z</time>
      </trkpt>
      <trkpt lat="44.365" lon="6.40668">
        <ele>2168.1999511719</ele>
        <time>2021-08-21T09:18:10Z</time>
      </trkpt>
      <trkpt lat="44.36499" lon="6.40668">
        <ele>2168.1999511719</ele>
        <time>2021-08-21T09:19:09Z</time>
      </trkpt>
      <trkpt lat="44.36499" lon="6.40668">
        <ele>2168.1999511719</ele>
        <time>2021-08-21T09:23:55Z</time>
      </trkpt>
      <trkpt lat="44.365" lon="6.4067">
        <ele>2168</ele>
        <time>2021-08-21T09:24:52Z</time>
      </trkpt>
      <trkpt lat="44.36501" lon="6.40671">
        <ele>2168.3999023438</ele>
        <time>2021-08-21T09:25:39Z</time>
      </trkpt>
      <trkpt lat="44.36499" lon="6.40667">
        <ele>2168</ele>
        <time>2021-08-21T09:27:09Z</time>
      </trkpt>
      <trkpt lat="44.36498" lon="6.40668">
        <ele>2168.6000976562</ele>
        <time>2021-08-21T09:28:05Z</time>
      </trkpt>
      <trkpt lat="44.365" lon="6.4067">
        <ele>2168.6000976562</ele>
        <time>2021-08-21T09:28:38Z</time>
      </trkpt>
      <trkpt lat="44.36511" lon="6.40675">
        <ele>2169.3999023438</ele>
        <time>2021-08-21T09:29:07Z</time>
      </trkpt>
      <trkpt lat="44.36514" lon="6.40694">
        <ele>2172.1999511719</ele>
        <time>2021-08-21T09:29:32Z</time>
      </trkpt>
      <trkpt lat="44.36514" lon="6.40714">
        <ele>2174</ele>
        <time>2021-08-21T09:29:53Z</time>
      </trkpt>
      <trkpt lat="44.36515" lon="6.40743">
        <ele>2176.6000976562</ele>
        <time>2021-08-21T09:30:16Z</time>
      </trkpt>
      <trkpt lat="44.36514" lon="6.40763">
        <ele>2178.6000976562</ele>
        <time>2021-08-21T09:30:33Z</time>
      </trkpt>
      <trkpt lat="44.36512" lon="6.40784">
        <ele>2180.1999511719</ele>
        <time>2021-08-21T09:30:51Z</time>
      </trkpt>
      <trkpt lat="44.3651" lon="6.40806">
        <ele>2183.1999511719</ele>
        <time>2021-08-21T09:31:12Z</time>
      </trkpt>
      <trkpt lat="44.36504" lon="6.40831">
        <ele>2186.1999511719</ele>
        <time>2021-08-21T09:31:36Z</time>
      </trkpt>
      <trkpt lat="44.365" lon="6.40851">
        <ele>2189.1999511719</ele>
        <time>2021-08-21T09:31:59Z</time>
      </trkpt>
      <trkpt lat="44.36495" lon="6.40865">
        <ele>2191.6000976562</ele>
        <time>2021-08-21T09:32:16Z</time>
      </trkpt>
      <trkpt lat="44.36491" lon="6.40869">
        <ele>2192</ele>
        <time>2021-08-21T09:32:21Z</time>
      </trkpt>
      <trkpt lat="44.36479" lon="6.40887">
        <ele>2193.6000976562</ele>
        <time>2021-08-21T09:32:41Z</time>
      </trkpt>
      <trkpt lat="44.3647" lon="6.409">
        <ele>2195.3999023438</ele>
        <time>2021-08-21T09:32:59Z</time>
      </trkpt>
      <trkpt lat="44.3646" lon="6.40917">
        <ele>2197.8000488281</ele>
        <time>2021-08-21T09:33:17Z</time>
      </trkpt>
      <trkpt lat="44.36453" lon="6.40935">
        <ele>2200.1999511719</ele>
        <time>2021-08-21T09:33:37Z</time>
      </trkpt>
      <trkpt lat="44.36444" lon="6.4095">
        <ele>2202.3999023438</ele>
        <time>2021-08-21T09:33:56Z</time>
      </trkpt>
      <trkpt lat="44.36436" lon="6.40966">
        <ele>2205.8000488281</ele>
        <time>2021-08-21T09:34:18Z</time>
      </trkpt>
      <trkpt lat="44.36428" lon="6.40978">
        <ele>2208.8000488281</ele>
        <time>2021-08-21T09:34:37Z</time>
      </trkpt>
      <trkpt lat="44.36425" lon="6.40998">
        <ele>2211.8000488281</ele>
        <time>2021-08-21T09:34:59Z</time>
      </trkpt>
      <trkpt lat="44.36429" lon="6.41017">
        <ele>2213.6000976562</ele>
        <time>2021-08-21T09:35:18Z</time>
      </trkpt>
      <trkpt lat="44.36436" lon="6.41037">
        <ele>2216.6000976562</ele>
        <time>2021-08-21T09:35:41Z</time>
      </trkpt>
      <trkpt lat="44.36443" lon="6.41056">
        <ele>2218.6000976562</ele>
        <time>2021-08-21T09:36:02Z</time>
      </trkpt>
      <trkpt lat="44.36449" lon="6.41077">
        <ele>2220.3999023438</ele>
        <time>2021-08-21T09:36:23Z</time>
      </trkpt>
      <trkpt lat="44.36458" lon="6.41099">
        <ele>2222.1999511719</ele>
        <time>2021-08-21T09:36:44Z</time>
      </trkpt>
      <trkpt lat="44.36461" lon="6.41102">
        <ele>2223.6000976562</ele>
        <time>2021-08-21T09:36:52Z</time>
      </trkpt>
      <trkpt lat="44.36462" lon="6.41101">
        <ele>2223.8000488281</ele>
        <time>2021-08-21T09:36:55Z</time>
      </trkpt>
      <trkpt lat="44.36463" lon="6.41109">
        <ele>2224.1999511719</ele>
        <time>2021-08-21T09:37:01Z</time>
      </trkpt>
      <trkpt lat="44.36469" lon="6.41129">
        <ele>2225.3999023438</ele>
        <time>2021-08-21T09:37:21Z</time>
      </trkpt>
      <trkpt lat="44.36471" lon="6.41141">
        <ele>2226.6000976562</ele>
        <time>2021-08-21T09:37:31Z</time>
      </trkpt>
      <trkpt lat="44.36472" lon="6.41163">
        <ele>2228.1999511719</ele>
        <time>2021-08-21T09:37:50Z</time>
      </trkpt>
      <trkpt lat="44.36468" lon="6.41182">
        <ele>2230.1999511719</ele>
        <time>2021-08-21T09:38:05Z</time>
      </trkpt>
      <trkpt lat="44.36465" lon="6.41207">
        <ele>2231.6000976562</ele>
        <time>2021-08-21T09:38:26Z</time>
      </trkpt>
      <trkpt lat="44.36466" lon="6.41227">
        <ele>2232.6000976562</ele>
        <time>2021-08-21T09:38:43Z</time>
      </trkpt>
      <trkpt lat="44.36472" lon="6.41251">
        <ele>2234.8000488281</ele>
        <time>2021-08-21T09:39:05Z</time>
      </trkpt>
      <trkpt lat="44.36479" lon="6.41273">
        <ele>2237</ele>
        <time>2021-08-21T09:39:25Z</time>
      </trkpt>
      <trkpt lat="44.36476" lon="6.41298">
        <ele>2238.6000976562</ele>
        <time>2021-08-21T09:39:46Z</time>
      </trkpt>
      <trkpt lat="44.36474" lon="6.41322">
        <ele>2240.6000976562</ele>
        <time>2021-08-21T09:40:05Z</time>
      </trkpt>
      <trkpt lat="44.36474" lon="6.41344">
        <ele>2243</ele>
        <time>2021-08-21T09:40:22Z</time>
      </trkpt>
      <trkpt lat="44.36474" lon="6.41356">
        <ele>2243.3999023438</ele>
        <time>2021-08-21T09:40:36Z</time>
      </trkpt>
      <trkpt lat="44.36479" lon="6.41377">
        <ele>2244.3999023438</ele>
        <time>2021-08-21T09:40:59Z</time>
      </trkpt>
      <trkpt lat="44.36486" lon="6.41391">
        <ele>2246.6000976562</ele>
        <time>2021-08-21T09:41:21Z</time>
      </trkpt>
      <trkpt lat="44.36498" lon="6.41409">
        <ele>2249.3999023438</ele>
        <time>2021-08-21T09:41:45Z</time>
      </trkpt>
      <trkpt lat="44.36499" lon="6.41416">
        <ele>2249.6000976562</ele>
        <time>2021-08-21T09:41:50Z</time>
      </trkpt>
      <trkpt lat="44.365" lon="6.41425">
        <ele>2250</ele>
        <time>2021-08-21T09:41:57Z</time>
      </trkpt>
      <trkpt lat="44.36504" lon="6.41446">
        <ele>2251.6000976562</ele>
        <time>2021-08-21T09:42:17Z</time>
      </trkpt>
      <trkpt lat="44.36502" lon="6.4147">
        <ele>2253.6000976562</ele>
        <time>2021-08-21T09:42:38Z</time>
      </trkpt>
      <trkpt lat="44.365" lon="6.41496">
        <ele>2256.1999511719</ele>
        <time>2021-08-21T09:43:03Z</time>
      </trkpt>
      <trkpt lat="44.365" lon="6.41512">
        <ele>2258</ele>
        <time>2021-08-21T09:43:25Z</time>
      </trkpt>
      <trkpt lat="44.36508" lon="6.41532">
        <ele>2260.1999511719</ele>
        <time>2021-08-21T09:43:50Z</time>
      </trkpt>
      <trkpt lat="44.36513" lon="6.41554">
        <ele>2262.8000488281</ele>
        <time>2021-08-21T09:44:13Z</time>
      </trkpt>
      <trkpt lat="44.36514" lon="6.41577">
        <ele>2264.8000488281</ele>
        <time>2021-08-21T09:44:34Z</time>
      </trkpt>
      <trkpt lat="44.36511" lon="6.41604">
        <ele>2267.8000488281</ele>
        <time>2021-08-21T09:44:58Z</time>
      </trkpt>
      <trkpt lat="44.36508" lon="6.41626">
        <ele>2269.6000976562</ele>
        <time>2021-08-21T09:45:19Z</time>
      </trkpt>
      <trkpt lat="44.36505" lon="6.41643">
        <ele>2270.6000976562</ele>
        <time>2021-08-21T09:45:36Z</time>
      </trkpt>
      <trkpt lat="44.365" lon="6.41656">
        <ele>2271.8000488281</ele>
        <time>2021-08-21T09:45:51Z</time>
      </trkpt>
      <trkpt lat="44.36492" lon="6.41678">
        <ele>2273</ele>
        <time>2021-08-21T09:46:13Z</time>
      </trkpt>
      <trkpt lat="44.36486" lon="6.4169">
        <ele>2274.6000976562</ele>
        <time>2021-08-21T09:46:27Z</time>
      </trkpt>
      <trkpt lat="44.36478" lon="6.41709">
        <ele>2276.6000976562</ele>
        <time>2021-08-21T09:46:47Z</time>
      </trkpt>
      <trkpt lat="44.36473" lon="6.41726">
        <ele>2278.3999023438</ele>
        <time>2021-08-21T09:47:03Z</time>
      </trkpt>
      <trkpt lat="44.36467" lon="6.41746">
        <ele>2278.8000488281</ele>
        <time>2021-08-21T09:47:23Z</time>
      </trkpt>
      <trkpt lat="44.36465" lon="6.41767">
        <ele>2280.1999511719</ele>
        <time>2021-08-21T09:47:42Z</time>
      </trkpt>
      <trkpt lat="44.3646" lon="6.41795">
        <ele>2282.1999511719</ele>
        <time>2021-08-21T09:48:06Z</time>
      </trkpt>
      <trkpt lat="44.36456" lon="6.41813">
        <ele>2284.3999023438</ele>
        <time>2021-08-21T09:48:28Z</time>
      </trkpt>
      <trkpt lat="44.36458" lon="6.41816">
        <ele>2285.1999511719</ele>
        <time>2021-08-21T09:49:04Z</time>
      </trkpt>
      <trkpt lat="44.36456" lon="6.41818">
        <ele>2285.3999023438</ele>
        <time>2021-08-21T09:50:01Z</time>
      </trkpt>
      <trkpt lat="44.36456" lon="6.41818">
        <ele>2285.3999023438</ele>
        <time>2021-08-21T09:50:48Z</time>
      </trkpt>
      <trkpt lat="44.36457" lon="6.41817">
        <ele>2286.6000976562</ele>
        <time>2021-08-21T09:51:35Z</time>
      </trkpt>
      <trkpt lat="44.36457" lon="6.41816">
        <ele>2286</ele>
        <time>2021-08-21T09:52:15Z</time>
      </trkpt>
      <trkpt lat="44.36458" lon="6.41817">
        <ele>2285.3999023438</ele>
        <time>2021-08-21T09:52:53Z</time>
      </trkpt>
      <trkpt lat="44.36458" lon="6.41817">
        <ele>2285.6000976562</ele>
        <time>2021-08-21T09:53:25Z</time>
      </trkpt>
      <trkpt lat="44.36458" lon="6.41819">
        <ele>2287</ele>
        <time>2021-08-21T09:54:16Z</time>
      </trkpt>
      <trkpt lat="44.36458" lon="6.4182">
        <ele>2286.8000488281</ele>
        <time>2021-08-21T09:54:51Z</time>
      </trkpt>
      <trkpt lat="44.36458" lon="6.41819">
        <ele>2286.1999511719</ele>
        <time>2021-08-21T09:56:09Z</time>
      </trkpt>
      <trkpt lat="44.36456" lon="6.41818">
        <ele>2285.3999023438</ele>
        <time>2021-08-21T09:56:28Z</time>
      </trkpt>
      <trkpt lat="44.36458" lon="6.41817">
        <ele>2286</ele>
        <time>2021-08-21T09:57:07Z</time>
      </trkpt>
      <trkpt lat="44.36457" lon="6.41814">
        <ele>2285.8000488281</ele>
        <time>2021-08-21T09:57:23Z</time>
      </trkpt>
      <trkpt lat="44.3646" lon="6.41813">
        <ele>2286</ele>
        <time>2021-08-21T09:57:49Z</time>
      </trkpt>
      <trkpt lat="44.36466" lon="6.41801">
        <ele>2286.8000488281</ele>
        <time>2021-08-21T09:58:09Z</time>
      </trkpt>
      <trkpt lat="44.3647" lon="6.41795">
        <ele>2287</ele>
        <time>2021-08-21T09:58:27Z</time>
      </trkpt>
      <trkpt lat="44.36476" lon="6.4178">
        <ele>2288.1999511719</ele>
        <time>2021-08-21T09:58:48Z</time>
      </trkpt>
      <trkpt lat="44.36479" lon="6.41771">
        <ele>2291.3999023438</ele>
        <time>2021-08-21T09:59:04Z</time>
      </trkpt>
      <trkpt lat="44.36484" lon="6.4176">
        <ele>2293.8000488281</ele>
        <time>2021-08-21T09:59:26Z</time>
      </trkpt>
      <trkpt lat="44.36487" lon="6.41748">
        <ele>2297</ele>
        <time>2021-08-21T09:59:46Z</time>
      </trkpt>
      <trkpt lat="44.36492" lon="6.41742">
        <ele>2298.6000976562</ele>
        <time>2021-08-21T10:00:08Z</time>
      </trkpt>
      <trkpt lat="44.36495" lon="6.41736">
        <ele>2298.3999023438</ele>
        <time>2021-08-21T10:00:14Z</time>
      </trkpt>
      <trkpt lat="44.36501" lon="6.41725">
        <ele>2299.3999023438</ele>
        <time>2021-08-21T10:00:32Z</time>
      </trkpt>
      <trkpt lat="44.36509" lon="6.41717">
        <ele>2302</ele>
        <time>2021-08-21T10:00:51Z</time>
      </trkpt>
      <trkpt lat="44.36515" lon="6.41711">
        <ele>2304.3999023438</ele>
        <time>2021-08-21T10:01:08Z</time>
      </trkpt>
      <trkpt lat="44.36523" lon="6.41704">
        <ele>2305</ele>
        <time>2021-08-21T10:01:25Z</time>
      </trkpt>
      <trkpt lat="44.36531" lon="6.41696">
        <ele>2306</ele>
        <time>2021-08-21T10:01:43Z</time>
      </trkpt>
      <trkpt lat="44.36539" lon="6.41688">
        <ele>2308.3999023438</ele>
        <time>2021-08-21T10:02:04Z</time>
      </trkpt>
      <trkpt lat="44.36543" lon="6.4168">
        <ele>2310</ele>
        <time>2021-08-21T10:02:22Z</time>
      </trkpt>
      <trkpt lat="44.36551" lon="6.41677">
        <ele>2312.6000976562</ele>
        <time>2021-08-21T10:02:43Z</time>
      </trkpt>
      <trkpt lat="44.36556" lon="6.41672">
        <ele>2315.6000976562</ele>
        <time>2021-08-21T10:03:10Z</time>
      </trkpt>
      <trkpt lat="44.36556" lon="6.41667">
        <ele>2317.6000976562</ele>
        <time>2021-08-21T10:03:31Z</time>
      </trkpt>
      <trkpt lat="44.36561" lon="6.41659">
        <ele>2319.1999511719</ele>
        <time>2021-08-21T10:03:49Z</time>
      </trkpt>
      <trkpt lat="44.36563" lon="6.41648">
        <ele>2320.8000488281</ele>
        <time>2021-08-21T10:04:09Z</time>
      </trkpt>
      <trkpt lat="44.36569" lon="6.41648">
        <ele>2323.8000488281</ele>
        <time>2021-08-21T10:04:31Z</time>
      </trkpt>
      <trkpt lat="44.36575" lon="6.41645">
        <ele>2326.8000488281</ele>
        <time>2021-08-21T10:04:50Z</time>
      </trkpt>
      <trkpt lat="44.36582" lon="6.41639">
        <ele>2329.8000488281</ele>
        <time>2021-08-21T10:05:12Z</time>
      </trkpt>
      <trkpt lat="44.36585" lon="6.41634">
        <ele>2331.6000976562</ele>
        <time>2021-08-21T10:05:37Z</time>
      </trkpt>
      <trkpt lat="44.36591" lon="6.41629">
        <ele>2333.6000976562</ele>
        <time>2021-08-21T10:05:54Z</time>
      </trkpt>
      <trkpt lat="44.36594" lon="6.41623">
        <ele>2336.6000976562</ele>
        <time>2021-08-21T10:06:11Z</time>
      </trkpt>
      <trkpt lat="44.36598" lon="6.41616">
        <ele>2339.6000976562</ele>
        <time>2021-08-21T10:06:30Z</time>
      </trkpt>
      <trkpt lat="44.36602" lon="6.41608">
        <ele>2342.6000976562</ele>
        <time>2021-08-21T10:06:49Z</time>
      </trkpt>
      <trkpt lat="44.36606" lon="6.41605">
        <ele>2345.6000976562</ele>
        <time>2021-08-21T10:07:08Z</time>
      </trkpt>
      <trkpt lat="44.3661" lon="6.41598">
        <ele>2347.1999511719</ele>
        <time>2021-08-21T10:07:29Z</time>
      </trkpt>
      <trkpt lat="44.36612" lon="6.41599">
        <ele>2349.6000976562</ele>
        <time>2021-08-21T10:07:53Z</time>
      </trkpt>
      <trkpt lat="44.36618" lon="6.41599">
        <ele>2352.6000976562</ele>
        <time>2021-08-21T10:08:26Z</time>
      </trkpt>
      <trkpt lat="44.36621" lon="6.41591">
        <ele>2355.8000488281</ele>
        <time>2021-08-21T10:08:48Z</time>
      </trkpt>
      <trkpt lat="44.36625" lon="6.41589">
        <ele>2357.8000488281</ele>
        <time>2021-08-21T10:09:19Z</time>
      </trkpt>
      <trkpt lat="44.36629" lon="6.41584">
        <ele>2361</ele>
        <time>2021-08-21T10:09:37Z</time>
      </trkpt>
      <trkpt lat="44.36633" lon="6.41574">
        <ele>2363.1999511719</ele>
        <time>2021-08-21T10:09:54Z</time>
      </trkpt>
      <trkpt lat="44.36637" lon="6.41565">
        <ele>2363.3999023438</ele>
        <time>2021-08-21T10:10:13Z</time>
      </trkpt>
      <trkpt lat="44.3664" lon="6.41557">
        <ele>2363.6000976562</ele>
        <time>2021-08-21T10:10:36Z</time>
      </trkpt>
      <trkpt lat="44.3664" lon="6.41547">
        <ele>2363.1999511719</ele>
        <time>2021-08-21T10:11:00Z</time>
      </trkpt>
      <trkpt lat="44.3664" lon="6.41546">
        <ele>2363.1999511719</ele>
        <time>2021-08-21T10:11:01Z</time>
      </trkpt>
      <trkpt lat="44.36639" lon="6.4153">
        <ele>2364</ele>
        <time>2021-08-21T10:11:18Z</time>
      </trkpt>
      <trkpt lat="44.3664" lon="6.41518">
        <ele>2364.8000488281</ele>
        <time>2021-08-21T10:11:27Z</time>
      </trkpt>
      <trkpt lat="44.36642" lon="6.41495">
        <ele>2366.3999023438</ele>
        <time>2021-08-21T10:11:45Z</time>
      </trkpt>
      <trkpt lat="44.36643" lon="6.41482">
        <ele>2366.6000976562</ele>
        <time>2021-08-21T10:11:55Z</time>
      </trkpt>
      <trkpt lat="44.36646" lon="6.41451">
        <ele>2366.8000488281</ele>
        <time>2021-08-21T10:12:18Z</time>
      </trkpt>
      <trkpt lat="44.36649" lon="6.41444">
        <ele>2367</ele>
        <time>2021-08-21T10:12:25Z</time>
      </trkpt>
      <trkpt lat="44.36649" lon="6.41423">
        <ele>2368.1999511719</ele>
        <time>2021-08-21T10:12:41Z</time>
      </trkpt>
      <trkpt lat="44.3665" lon="6.4142">
        <ele>2368.3999023438</ele>
        <time>2021-08-21T10:12:44Z</time>
      </trkpt>
      <trkpt lat="44.36652" lon="6.41402">
        <ele>2371</ele>
        <time>2021-08-21T10:13:01Z</time>
      </trkpt>
      <trkpt lat="44.36656" lon="6.41381">
        <ele>2373.6000976562</ele>
        <time>2021-08-21T10:13:19Z</time>
      </trkpt>
      <trkpt lat="44.3666" lon="6.41362">
        <ele>2376</ele>
        <time>2021-08-21T10:13:38Z</time>
      </trkpt>
      <trkpt lat="44.36661" lon="6.41348">
        <ele>2378.6000976562</ele>
        <time>2021-08-21T10:13:54Z</time>
      </trkpt>
      <trkpt lat="44.36662" lon="6.41338">
        <ele>2381.8000488281</ele>
        <time>2021-08-21T10:14:07Z</time>
      </trkpt>
      <trkpt lat="44.36663" lon="6.41331">
        <ele>2382.6000976562</ele>
        <time>2021-08-21T10:14:44Z</time>
      </trkpt>
      <trkpt lat="44.36663" lon="6.41317">
        <ele>2385.8000488281</ele>
        <time>2021-08-21T10:15:03Z</time>
      </trkpt>
      <trkpt lat="44.36665" lon="6.41308">
        <ele>2388.1999511719</ele>
        <time>2021-08-21T10:15:21Z</time>
      </trkpt>
      <trkpt lat="44.36666" lon="6.413">
        <ele>2388.6000976562</ele>
        <time>2021-08-21T10:15:49Z</time>
      </trkpt>
      <trkpt lat="44.36665" lon="6.41301">
        <ele>2389.3999023438</ele>
        <time>2021-08-21T10:16:36Z</time>
      </trkpt>
      <trkpt lat="44.36666" lon="6.41295">
        <ele>2389.6000976562</ele>
        <time>2021-08-21T10:17:22Z</time>
      </trkpt>
      <trkpt lat="44.36669" lon="6.41287">
        <ele>2390.3999023438</ele>
        <time>2021-08-21T10:17:37Z</time>
      </trkpt>
      <trkpt lat="44.3667" lon="6.41279">
        <ele>2391.6000976562</ele>
        <time>2021-08-21T10:17:56Z</time>
      </trkpt>
      <trkpt lat="44.36676" lon="6.41263">
        <ele>2394</ele>
        <time>2021-08-21T10:18:16Z</time>
      </trkpt>
      <trkpt lat="44.36683" lon="6.41238">
        <ele>2396.8000488281</ele>
        <time>2021-08-21T10:18:37Z</time>
      </trkpt>
      <trkpt lat="44.36685" lon="6.41233">
        <ele>2397.3999023438</ele>
        <time>2021-08-21T10:18:43Z</time>
      </trkpt>
      <trkpt lat="44.36692" lon="6.4121">
        <ele>2398.6000976562</ele>
        <time>2021-08-21T10:19:06Z</time>
      </trkpt>
      <trkpt lat="44.36698" lon="6.41196">
        <ele>2400</ele>
        <time>2021-08-21T10:19:22Z</time>
      </trkpt>
      <trkpt lat="44.36703" lon="6.41186">
        <ele>2401.8000488281</ele>
        <time>2021-08-21T10:19:43Z</time>
      </trkpt>
      <trkpt lat="44.36706" lon="6.41179">
        <ele>2402.3999023438</ele>
        <time>2021-08-21T10:20:15Z</time>
      </trkpt>
      <trkpt lat="44.3671" lon="6.41168">
        <ele>2403.8000488281</ele>
        <time>2021-08-21T10:20:39Z</time>
      </trkpt>
      <trkpt lat="44.36713" lon="6.41151">
        <ele>2406.3999023438</ele>
        <time>2021-08-21T10:21:04Z</time>
      </trkpt>
      <trkpt lat="44.36716" lon="6.41144">
        <ele>2407.8000488281</ele>
        <time>2021-08-21T10:21:27Z</time>
      </trkpt>
      <trkpt lat="44.36716" lon="6.41141">
        <ele>2408</ele>
        <time>2021-08-21T10:22:46Z</time>
      </trkpt>
      <trkpt lat="44.3672" lon="6.41128">
        <ele>2409</ele>
        <time>2021-08-21T10:23:08Z</time>
      </trkpt>
      <trkpt lat="44.36719" lon="6.41125">
        <ele>2409.1999511719</ele>
        <time>2021-08-21T10:23:22Z</time>
      </trkpt>
      <trkpt lat="44.36717" lon="6.41124">
        <ele>2408.6000976562</ele>
        <time>2021-08-21T10:23:41Z</time>
      </trkpt>
      <trkpt lat="44.36718" lon="6.41131">
        <ele>2408.8000488281</ele>
        <time>2021-08-21T10:23:56Z</time>
      </trkpt>
      <trkpt lat="44.36717" lon="6.41142">
        <ele>2409</ele>
        <time>2021-08-21T10:24:17Z</time>
      </trkpt>
      <trkpt lat="44.36717" lon="6.41146">
        <ele>2407.3999023438</ele>
        <time>2021-08-21T10:24:59Z</time>
      </trkpt>
      <trkpt lat="44.36716" lon="6.41143">
        <ele>2407.3999023438</ele>
        <time>2021-08-21T10:26:06Z</time>
      </trkpt>
      <trkpt lat="44.3671" lon="6.41134">
        <ele>2407.8000488281</ele>
        <time>2021-08-21T10:26:23Z</time>
      </trkpt>
      <trkpt lat="44.36711" lon="6.41133">
        <ele>2407.1999511719</ele>
        <time>2021-08-21T10:26:52Z</time>
      </trkpt>
      <trkpt lat="44.36709" lon="6.41133">
        <ele>2407.1999511719</ele>
        <time>2021-08-21T10:27:42Z</time>
      </trkpt>
      <trkpt lat="44.3671" lon="6.41133">
        <ele>2407.1999511719</ele>
        <time>2021-08-21T10:28:08Z</time>
      </trkpt>
      <trkpt lat="44.36711" lon="6.41132">
        <ele>2406.8000488281</ele>
        <time>2021-08-21T10:28:56Z</time>
      </trkpt>
      <trkpt lat="44.36711" lon="6.41133">
        <ele>2407</ele>
        <time>2021-08-21T10:29:58Z</time>
      </trkpt>
      <trkpt lat="44.36711" lon="6.41133">
        <ele>2407.3999023438</ele>
        <time>2021-08-21T10:30:45Z</time>
      </trkpt>
      <trkpt lat="44.3671" lon="6.41132">
        <ele>2407</ele>
        <time>2021-08-21T10:31:09Z</time>
      </trkpt>
      <trkpt lat="44.36709" lon="6.41134">
        <ele>2407.1999511719</ele>
        <time>2021-08-21T10:31:43Z</time>
      </trkpt>
      <trkpt lat="44.3671" lon="6.41133">
        <ele>2407.3999023438</ele>
        <time>2021-08-21T10:32:23Z</time>
      </trkpt>
      <trkpt lat="44.3671" lon="6.41132">
        <ele>2407.3999023438</ele>
        <time>2021-08-21T10:33:15Z</time>
      </trkpt>
      <trkpt lat="44.3671" lon="6.41133">
        <ele>2407.8000488281</ele>
        <time>2021-08-21T10:33:35Z</time>
      </trkpt>
      <trkpt lat="44.36712" lon="6.41136">
        <ele>2407.8000488281</ele>
        <time>2021-08-21T10:35:09Z</time>
      </trkpt>
      <trkpt lat="44.36715" lon="6.41137">
        <ele>2407.8000488281</ele>
        <time>2021-08-21T10:35:13Z</time>
      </trkpt>
      <trkpt lat="44.36717" lon="6.41141">
        <ele>2408</ele>
        <time>2021-08-21T10:35:28Z</time>
      </trkpt>
      <trkpt lat="44.36717" lon="6.4114">
        <ele>2408.6000976562</ele>
        <time>2021-08-21T10:36:06Z</time>
      </trkpt>
      <trkpt lat="44.36716" lon="6.41143">
        <ele>2408.3999023438</ele>
        <time>2021-08-21T10:36:34Z</time>
      </trkpt>
      <trkpt lat="44.36718" lon="6.41135">
        <ele>2408.3999023438</ele>
        <time>2021-08-21T10:36:52Z</time>
      </trkpt>
      <trkpt lat="44.36723" lon="6.41126">
        <ele>2409.3999023438</ele>
        <time>2021-08-21T10:37:09Z</time>
      </trkpt>
      <trkpt lat="44.36727" lon="6.41117">
        <ele>2409.1999511719</ele>
        <time>2021-08-21T10:37:35Z</time>
      </trkpt>
      <trkpt lat="44.36728" lon="6.41116">
        <ele>2408</ele>
        <time>2021-08-21T10:38:00Z</time>
      </trkpt>
      <trkpt lat="44.36732" lon="6.4111">
        <ele>2407.3999023438</ele>
        <time>2021-08-21T10:38:20Z</time>
      </trkpt>
      <trkpt lat="44.36739" lon="6.41103">
        <ele>2405.6000976562</ele>
        <time>2021-08-21T10:38:38Z</time>
      </trkpt>
      <trkpt lat="44.36748" lon="6.41097">
        <ele>2402.8000488281</ele>
        <time>2021-08-21T10:38:55Z</time>
      </trkpt>
      <trkpt lat="44.36754" lon="6.41094">
        <ele>2401</ele>
        <time>2021-08-21T10:39:10Z</time>
      </trkpt>
      <trkpt lat="44.36762" lon="6.41089">
        <ele>2399</ele>
        <time>2021-08-21T10:39:26Z</time>
      </trkpt>
      <trkpt lat="44.36769" lon="6.41086">
        <ele>2396</ele>
        <time>2021-08-21T10:39:45Z</time>
      </trkpt>
      <trkpt lat="44.36777" lon="6.41085">
        <ele>2393.3999023438</ele>
        <time>2021-08-21T10:40:01Z</time>
      </trkpt>
      <trkpt lat="44.36784" lon="6.4108">
        <ele>2390.3999023438</ele>
        <time>2021-08-21T10:40:17Z</time>
      </trkpt>
      <trkpt lat="44.36794" lon="6.41073">
        <ele>2387.3999023438</ele>
        <time>2021-08-21T10:40:35Z</time>
      </trkpt>
      <trkpt lat="44.36803" lon="6.41075">
        <ele>2385.1999511719</ele>
        <time>2021-08-21T10:40:56Z</time>
      </trkpt>
      <trkpt lat="44.36809" lon="6.41072">
        <ele>2382.1999511719</ele>
        <time>2021-08-21T10:41:14Z</time>
      </trkpt>
      <trkpt lat="44.36814" lon="6.41074">
        <ele>2379.1999511719</ele>
        <time>2021-08-21T10:41:32Z</time>
      </trkpt>
      <trkpt lat="44.36819" lon="6.41071">
        <ele>2376.1999511719</ele>
        <time>2021-08-21T10:41:47Z</time>
      </trkpt>
      <trkpt lat="44.36824" lon="6.41068">
        <ele>2373.8000488281</ele>
        <time>2021-08-21T10:42:04Z</time>
      </trkpt>
      <trkpt lat="44.36831" lon="6.4107">
        <ele>2370.8000488281</ele>
        <time>2021-08-21T10:42:27Z</time>
      </trkpt>
      <trkpt lat="44.36836" lon="6.4107">
        <ele>2368.8000488281</ele>
        <time>2021-08-21T10:42:44Z</time>
      </trkpt>
      <trkpt lat="44.3684" lon="6.41069">
        <ele>2366.6000976562</ele>
        <time>2021-08-21T10:43:01Z</time>
      </trkpt>
      <trkpt lat="44.36844" lon="6.41071">
        <ele>2364</ele>
        <time>2021-08-21T10:43:23Z</time>
      </trkpt>
      <trkpt lat="44.36847" lon="6.41068">
        <ele>2361</ele>
        <time>2021-08-21T10:43:48Z</time>
      </trkpt>
      <trkpt lat="44.36851" lon="6.41067">
        <ele>2358.8000488281</ele>
        <time>2021-08-21T10:44:08Z</time>
      </trkpt>
      <trkpt lat="44.36854" lon="6.41066">
        <ele>2357.3999023438</ele>
        <time>2021-08-21T10:44:30Z</time>
      </trkpt>
      <trkpt lat="44.36857" lon="6.41072">
        <ele>2355.1999511719</ele>
        <time>2021-08-21T10:44:52Z</time>
      </trkpt>
      <trkpt lat="44.36861" lon="6.41076">
        <ele>2353.8000488281</ele>
        <time>2021-08-21T10:45:07Z</time>
      </trkpt>
      <trkpt lat="44.36865" lon="6.41076">
        <ele>2351.1999511719</ele>
        <time>2021-08-21T10:45:26Z</time>
      </trkpt>
      <trkpt lat="44.3687" lon="6.41073">
        <ele>2348</ele>
        <time>2021-08-21T10:45:48Z</time>
      </trkpt>
      <trkpt lat="44.36874" lon="6.41076">
        <ele>2346</ele>
        <time>2021-08-21T10:46:07Z</time>
      </trkpt>
      <trkpt lat="44.36881" lon="6.41077">
        <ele>2343.3999023438</ele>
        <time>2021-08-21T10:46:26Z</time>
      </trkpt>
      <trkpt lat="44.36886" lon="6.41071">
        <ele>2340.1999511719</ele>
        <time>2021-08-21T10:46:46Z</time>
      </trkpt>
      <trkpt lat="44.36888" lon="6.41063">
        <ele>2337.1999511719</ele>
        <time>2021-08-21T10:47:03Z</time>
      </trkpt>
      <trkpt lat="44.3689" lon="6.41068">
        <ele>2335.6000976562</ele>
        <time>2021-08-21T10:47:24Z</time>
      </trkpt>
      <trkpt lat="44.36895" lon="6.41076">
        <ele>2334</ele>
        <time>2021-08-21T10:47:42Z</time>
      </trkpt>
      <trkpt lat="44.36901" lon="6.4107">
        <ele>2331</ele>
        <time>2021-08-21T10:48:04Z</time>
      </trkpt>
      <trkpt lat="44.36903" lon="6.41057">
        <ele>2328</ele>
        <time>2021-08-21T10:48:16Z</time>
      </trkpt>
      <trkpt lat="44.36904" lon="6.41045">
        <ele>2325</ele>
        <time>2021-08-21T10:48:28Z</time>
      </trkpt>
      <trkpt lat="44.36908" lon="6.41031">
        <ele>2322</ele>
        <time>2021-08-21T10:48:53Z</time>
      </trkpt>
      <trkpt lat="44.3691" lon="6.41015">
        <ele>2318.8000488281</ele>
        <time>2021-08-21T10:49:08Z</time>
      </trkpt>
      <trkpt lat="44.36913" lon="6.41001">
        <ele>2315.6000976562</ele>
        <time>2021-08-21T10:49:23Z</time>
      </trkpt>
      <trkpt lat="44.36915" lon="6.40986">
        <ele>2312.3999023438</ele>
        <time>2021-08-21T10:49:39Z</time>
      </trkpt>
      <trkpt lat="44.36919" lon="6.40977">
        <ele>2309.3999023438</ele>
        <time>2021-08-21T10:49:53Z</time>
      </trkpt>
      <trkpt lat="44.36922" lon="6.40967">
        <ele>2306</ele>
        <time>2021-08-21T10:50:06Z</time>
      </trkpt>
      <trkpt lat="44.36925" lon="6.40952">
        <ele>2303.3999023438</ele>
        <time>2021-08-21T10:50:25Z</time>
      </trkpt>
      <trkpt lat="44.36929" lon="6.40942">
        <ele>2300.1999511719</ele>
        <time>2021-08-21T10:50:36Z</time>
      </trkpt>
      <trkpt lat="44.36933" lon="6.40932">
        <ele>2297</ele>
        <time>2021-08-21T10:50:48Z</time>
      </trkpt>
      <trkpt lat="44.36935" lon="6.40927">
        <ele>2294</ele>
        <time>2021-08-21T10:51:02Z</time>
      </trkpt>
      <trkpt lat="44.36945" lon="6.4091">
        <ele>2291</ele>
        <time>2021-08-21T10:51:25Z</time>
      </trkpt>
      <trkpt lat="44.36949" lon="6.40902">
        <ele>2287.8000488281</ele>
        <time>2021-08-21T10:51:37Z</time>
      </trkpt>
      <trkpt lat="44.36954" lon="6.4089">
        <ele>2284.6000976562</ele>
        <time>2021-08-21T10:52:02Z</time>
      </trkpt>
      <trkpt lat="44.3696" lon="6.40879">
        <ele>2281.3999023438</ele>
        <time>2021-08-21T10:52:19Z</time>
      </trkpt>
      <trkpt lat="44.36962" lon="6.40875">
        <ele>2281</ele>
        <time>2021-08-21T10:52:39Z</time>
      </trkpt>
      <trkpt lat="44.36963" lon="6.40866">
        <ele>2278</ele>
        <time>2021-08-21T10:53:05Z</time>
      </trkpt>
      <trkpt lat="44.36969" lon="6.40858">
        <ele>2277.8000488281</ele>
        <time>2021-08-21T10:53:29Z</time>
      </trkpt>
      <trkpt lat="44.36976" lon="6.40846">
        <ele>2274.6000976562</ele>
        <time>2021-08-21T10:53:50Z</time>
      </trkpt>
      <trkpt lat="44.36978" lon="6.40841">
        <ele>2271.3999023438</ele>
        <time>2021-08-21T10:54:00Z</time>
      </trkpt>
      <trkpt lat="44.36984" lon="6.40843">
        <ele>2269.1999511719</ele>
        <time>2021-08-21T10:54:17Z</time>
      </trkpt>
      <trkpt lat="44.36992" lon="6.40846">
        <ele>2267</ele>
        <time>2021-08-21T10:54:39Z</time>
      </trkpt>
      <trkpt lat="44.36998" lon="6.40839">
        <ele>2264</ele>
        <time>2021-08-21T10:54:54Z</time>
      </trkpt>
      <trkpt lat="44.37003" lon="6.40832">
        <ele>2260.8000488281</ele>
        <time>2021-08-21T10:55:06Z</time>
      </trkpt>
      <trkpt lat="44.37008" lon="6.40821">
        <ele>2257.6000976562</ele>
        <time>2021-08-21T10:55:21Z</time>
      </trkpt>
      <trkpt lat="44.37014" lon="6.4081">
        <ele>2254.6000976562</ele>
        <time>2021-08-21T10:55:40Z</time>
      </trkpt>
      <trkpt lat="44.37021" lon="6.40797">
        <ele>2251.6000976562</ele>
        <time>2021-08-21T10:55:57Z</time>
      </trkpt>
      <trkpt lat="44.37028" lon="6.40784">
        <ele>2248.3999023438</ele>
        <time>2021-08-21T10:56:11Z</time>
      </trkpt>
      <trkpt lat="44.37031" lon="6.40777">
        <ele>2245.3999023438</ele>
        <time>2021-08-21T10:56:23Z</time>
      </trkpt>
      <trkpt lat="44.3704" lon="6.40764">
        <ele>2242.8000488281</ele>
        <time>2021-08-21T10:56:42Z</time>
      </trkpt>
      <trkpt lat="44.37045" lon="6.40756">
        <ele>2240.6000976562</ele>
        <time>2021-08-21T10:57:08Z</time>
      </trkpt>
      <trkpt lat="44.37057" lon="6.40747">
        <ele>2238</ele>
        <time>2021-08-21T10:57:25Z</time>
      </trkpt>
      <trkpt lat="44.37061" lon="6.40745">
        <ele>2237.6000976562</ele>
        <time>2021-08-21T10:57:29Z</time>
      </trkpt>
      <trkpt lat="44.37062" lon="6.40743">
        <ele>2237.3999023438</ele>
        <time>2021-08-21T10:57:31Z</time>
      </trkpt>
      <trkpt lat="44.37069" lon="6.40727">
        <ele>2237.6000976562</ele>
        <time>2021-08-21T10:57:49Z</time>
      </trkpt>
      <trkpt lat="44.37075" lon="6.4071">
        <ele>2239.8000488281</ele>
        <time>2021-08-21T10:58:10Z</time>
      </trkpt>
      <trkpt lat="44.37079" lon="6.40695">
        <ele>2242.8000488281</ele>
        <time>2021-08-21T10:58:28Z</time>
      </trkpt>
      <trkpt lat="44.37091" lon="6.40681">
        <ele>2244.8000488281</ele>
        <time>2021-08-21T10:58:47Z</time>
      </trkpt>
      <trkpt lat="44.37101" lon="6.40665">
        <ele>2246.1999511719</ele>
        <time>2021-08-21T10:59:03Z</time>
      </trkpt>
      <trkpt lat="44.3711" lon="6.40656">
        <ele>2246.1999511719</ele>
        <time>2021-08-21T10:59:12Z</time>
      </trkpt>
      <trkpt lat="44.37121" lon="6.40641">
        <ele>2245.8000488281</ele>
        <time>2021-08-21T10:59:27Z</time>
      </trkpt>
      <trkpt lat="44.37132" lon="6.4063">
        <ele>2245.1999511719</ele>
        <time>2021-08-21T10:59:43Z</time>
      </trkpt>
      <trkpt lat="44.37143" lon="6.40617">
        <ele>2246.6000976562</ele>
        <time>2021-08-21T11:00:01Z</time>
      </trkpt>
      <trkpt lat="44.37145" lon="6.40612">
        <ele>2247</ele>
        <time>2021-08-21T11:00:36Z</time>
      </trkpt>
      <trkpt lat="44.37143" lon="6.40608">
        <ele>2249.3999023438</ele>
        <time>2021-08-21T11:01:01Z</time>
      </trkpt>
      <trkpt lat="44.37144" lon="6.40607">
        <ele>2249.6000976562</ele>
        <time>2021-08-21T11:01:18Z</time>
      </trkpt>
      <trkpt lat="44.37142" lon="6.40608">
        <ele>2248.1999511719</ele>
        <time>2021-08-21T11:02:56Z</time>
      </trkpt>
      <trkpt lat="44.37142" lon="6.40608">
        <ele>2247.8000488281</ele>
        <time>2021-08-21T11:03:41Z</time>
      </trkpt>
      <trkpt lat="44.37143" lon="6.40608">
        <ele>2248.6000976562</ele>
        <time>2021-08-21T11:04:39Z</time>
      </trkpt>
      <trkpt lat="44.37143" lon="6.40607">
        <ele>2248</ele>
        <time>2021-08-21T11:06:08Z</time>
      </trkpt>
      <trkpt lat="44.37143" lon="6.40608">
        <ele>2247.3999023438</ele>
        <time>2021-08-21T11:08:11Z</time>
      </trkpt>
      <trkpt lat="44.37143" lon="6.40609">
        <ele>2248.6000976562</ele>
        <time>2021-08-21T11:09:16Z</time>
      </trkpt>
      <trkpt lat="44.37144" lon="6.40609">
        <ele>2247.1999511719</ele>
        <time>2021-08-21T11:10:29Z</time>
      </trkpt>
      <trkpt lat="44.37144" lon="6.40611">
        <ele>2248</ele>
        <time>2021-08-21T11:13:32Z</time>
      </trkpt>
      <trkpt lat="44.37144" lon="6.4061">
        <ele>2246.8000488281</ele>
        <time>2021-08-21T11:17:33Z</time>
      </trkpt>
      <trkpt lat="44.37145" lon="6.40609">
        <ele>2245.6000976562</ele>
        <time>2021-08-21T11:20:36Z</time>
      </trkpt>
      <trkpt lat="44.37145" lon="6.4061">
        <ele>2246.3999023438</ele>
        <time>2021-08-21T11:22:26Z</time>
      </trkpt>
      <trkpt lat="44.37144" lon="6.4061">
        <ele>2245.1999511719</ele>
        <time>2021-08-21T11:25:05Z</time>
      </trkpt>
      <trkpt lat="44.37144" lon="6.40611">
        <ele>2246.8000488281</ele>
        <time>2021-08-21T11:28:56Z</time>
      </trkpt>
      <trkpt lat="44.37143" lon="6.40611">
        <ele>2246.1999511719</ele>
        <time>2021-08-21T11:32:10Z</time>
      </trkpt>
      <trkpt lat="44.37143" lon="6.40611">
        <ele>2247.8000488281</ele>
        <time>2021-08-21T11:33:33Z</time>
      </trkpt>
      <trkpt lat="44.37143" lon="6.4061">
        <ele>2245.3999023438</ele>
        <time>2021-08-21T11:36:01Z</time>
      </trkpt>
      <trkpt lat="44.37143" lon="6.40611">
        <ele>2246.3999023438</ele>
        <time>2021-08-21T11:38:25Z</time>
      </trkpt>
      <trkpt lat="44.37144" lon="6.40611">
        <ele>2247.1999511719</ele>
        <time>2021-08-21T11:38:51Z</time>
      </trkpt>
      <trkpt lat="44.37143" lon="6.40611">
        <ele>2247.6000976562</ele>
        <time>2021-08-21T11:39:51Z</time>
      </trkpt>
      <trkpt lat="44.37143" lon="6.40611">
        <ele>2246</ele>
        <time>2021-08-21T11:44:11Z</time>
      </trkpt>
      <trkpt lat="44.37143" lon="6.40612">
        <ele>2245.8000488281</ele>
        <time>2021-08-21T11:46:26Z</time>
      </trkpt>
      <trkpt lat="44.37143" lon="6.4061">
        <ele>2245.1999511719</ele>
        <time>2021-08-21T11:47:58Z</time>
      </trkpt>
      <trkpt lat="44.37143" lon="6.40609">
        <ele>2245.1999511719</ele>
        <time>2021-08-21T11:48:46Z</time>
      </trkpt>
      <trkpt lat="44.37144" lon="6.40608">
        <ele>2246</ele>
        <time>2021-08-21T11:48:57Z</time>
      </trkpt>
      <trkpt lat="44.37145" lon="6.4061">
        <ele>2246.1999511719</ele>
        <time>2021-08-21T11:49:39Z</time>
      </trkpt>
      <trkpt lat="44.37147" lon="6.4061">
        <ele>2245.3999023438</ele>
        <time>2021-08-21T11:50:24Z</time>
      </trkpt>
      <trkpt lat="44.37147" lon="6.4061">
        <ele>2245</ele>
        <time>2021-08-21T11:51:21Z</time>
      </trkpt>
      <trkpt lat="44.37149" lon="6.40612">
        <ele>2244.3999023438</ele>
        <time>2021-08-21T11:51:47Z</time>
      </trkpt>
      <trkpt lat="44.37153" lon="6.40605">
        <ele>2246.6000976562</ele>
        <time>2021-08-21T11:52:20Z</time>
      </trkpt>
      <trkpt lat="44.37159" lon="6.40598">
        <ele>2246.3999023438</ele>
        <time>2021-08-21T11:52:30Z</time>
      </trkpt>
      <trkpt lat="44.37169" lon="6.4059">
        <ele>2244.6000976562</ele>
        <time>2021-08-21T11:52:44Z</time>
      </trkpt>
      <trkpt lat="44.37177" lon="6.40579">
        <ele>2243.8000488281</ele>
        <time>2021-08-21T11:52:56Z</time>
      </trkpt>
      <trkpt lat="44.3718" lon="6.40574">
        <ele>2243.6000976562</ele>
        <time>2021-08-21T11:53:00Z</time>
      </trkpt>
      <trkpt lat="44.37189" lon="6.40559">
        <ele>2243</ele>
        <time>2021-08-21T11:53:15Z</time>
      </trkpt>
      <trkpt lat="44.3719" lon="6.40557">
        <ele>2243</ele>
        <time>2021-08-21T11:53:17Z</time>
      </trkpt>
      <trkpt lat="44.37195" lon="6.4055">
        <ele>2242.8000488281</ele>
        <time>2021-08-21T11:53:24Z</time>
      </trkpt>
      <trkpt lat="44.37204" lon="6.40537">
        <ele>2241.3999023438</ele>
        <time>2021-08-21T11:53:37Z</time>
      </trkpt>
      <trkpt lat="44.37215" lon="6.40528">
        <ele>2240</ele>
        <time>2021-08-21T11:53:52Z</time>
      </trkpt>
      <trkpt lat="44.37217" lon="6.40526">
        <ele>2239.6000976562</ele>
        <time>2021-08-21T11:53:54Z</time>
      </trkpt>
      <trkpt lat="44.3722" lon="6.4052">
        <ele>2238.3999023438</ele>
        <time>2021-08-21T11:53:58Z</time>
      </trkpt>
      <trkpt lat="44.37226" lon="6.40504">
        <ele>2237.1999511719</ele>
        <time>2021-08-21T11:54:17Z</time>
      </trkpt>
      <trkpt lat="44.37233" lon="6.40475">
        <ele>2237.3999023438</ele>
        <time>2021-08-21T11:54:38Z</time>
      </trkpt>
      <trkpt lat="44.37233" lon="6.40453">
        <ele>2235.6000976562</ele>
        <time>2021-08-21T11:54:54Z</time>
      </trkpt>
      <trkpt lat="44.37233" lon="6.40452">
        <ele>2234.8000488281</ele>
        <time>2021-08-21T11:55:19Z</time>
      </trkpt>
      <trkpt lat="44.37233" lon="6.40451">
        <ele>2234.8000488281</ele>
        <time>2021-08-21T11:55:20Z</time>
      </trkpt>
      <trkpt lat="44.37235" lon="6.40443">
        <ele>2235.6000976562</ele>
        <time>2021-08-21T11:55:26Z</time>
      </trkpt>
      <trkpt lat="44.37237" lon="6.40422">
        <ele>2235.3999023438</ele>
        <time>2021-08-21T11:55:40Z</time>
      </trkpt>
      <trkpt lat="44.3725" lon="6.40396">
        <ele>2234.8000488281</ele>
        <time>2021-08-21T11:56:02Z</time>
      </trkpt>
      <trkpt lat="44.37265" lon="6.4038">
        <ele>2236</ele>
        <time>2021-08-21T11:56:22Z</time>
      </trkpt>
      <trkpt lat="44.37268" lon="6.40378">
        <ele>2236.1999511719</ele>
        <time>2021-08-21T11:56:25Z</time>
      </trkpt>
      <trkpt lat="44.37276" lon="6.40374">
        <ele>2237.1999511719</ele>
        <time>2021-08-21T11:56:34Z</time>
      </trkpt>
      <trkpt lat="44.37293" lon="6.40369">
        <ele>2238.1999511719</ele>
        <time>2021-08-21T11:56:53Z</time>
      </trkpt>
      <trkpt lat="44.37306" lon="6.40366">
        <ele>2240.1999511719</ele>
        <time>2021-08-21T11:57:10Z</time>
      </trkpt>
      <trkpt lat="44.37321" lon="6.40367">
        <ele>2242.8000488281</ele>
        <time>2021-08-21T11:57:32Z</time>
      </trkpt>
      <trkpt lat="44.37335" lon="6.40365">
        <ele>2245.6000976562</ele>
        <time>2021-08-21T11:57:57Z</time>
      </trkpt>
      <trkpt lat="44.37346" lon="6.40373">
        <ele>2248.1999511719</ele>
        <time>2021-08-21T11:58:20Z</time>
      </trkpt>
      <trkpt lat="44.37353" lon="6.40377">
        <ele>2249.3999023438</ele>
        <time>2021-08-21T11:58:29Z</time>
      </trkpt>
      <trkpt lat="44.37368" lon="6.40389">
        <ele>2250.1999511719</ele>
        <time>2021-08-21T11:58:47Z</time>
      </trkpt>
      <trkpt lat="44.37379" lon="6.404">
        <ele>2250.1999511719</ele>
        <time>2021-08-21T11:59:02Z</time>
      </trkpt>
      <trkpt lat="44.37387" lon="6.40406">
        <ele>2250.3999023438</ele>
        <time>2021-08-21T11:59:19Z</time>
      </trkpt>
      <trkpt lat="44.37393" lon="6.40413">
        <ele>2250.1999511719</ele>
        <time>2021-08-21T11:59:55Z</time>
      </trkpt>
      <trkpt lat="44.37396" lon="6.40422">
        <ele>2250</ele>
        <time>2021-08-21T12:00:11Z</time>
      </trkpt>
      <trkpt lat="44.37401" lon="6.40435">
        <ele>2249.6000976562</ele>
        <time>2021-08-21T12:00:28Z</time>
      </trkpt>
      <trkpt lat="44.37406" lon="6.40445">
        <ele>2248.3999023438</ele>
        <time>2021-08-21T12:00:42Z</time>
      </trkpt>
      <trkpt lat="44.37411" lon="6.40458">
        <ele>2246</ele>
        <time>2021-08-21T12:01:01Z</time>
      </trkpt>
      <trkpt lat="44.37413" lon="6.40458">
        <ele>2245.1999511719</ele>
        <time>2021-08-21T12:01:23Z</time>
      </trkpt>
      <trkpt lat="44.37416" lon="6.40463">
        <ele>2245</ele>
        <time>2021-08-21T12:01:49Z</time>
      </trkpt>
      <trkpt lat="44.37431" lon="6.40476">
        <ele>2244.1999511719</ele>
        <time>2021-08-21T12:02:08Z</time>
      </trkpt>
      <trkpt lat="44.37444" lon="6.40482">
        <ele>2245.3999023438</ele>
        <time>2021-08-21T12:02:25Z</time>
      </trkpt>
      <trkpt lat="44.37455" lon="6.40483">
        <ele>2248.3999023438</ele>
        <time>2021-08-21T12:02:41Z</time>
      </trkpt>
      <trkpt lat="44.37467" lon="6.40484">
        <ele>2251.3999023438</ele>
        <time>2021-08-21T12:02:57Z</time>
      </trkpt>
      <trkpt lat="44.37477" lon="6.40482">
        <ele>2254.1999511719</ele>
        <time>2021-08-21T12:03:16Z</time>
      </trkpt>
      <trkpt lat="44.37481" lon="6.40483">
        <ele>2257.1999511719</ele>
        <time>2021-08-21T12:03:27Z</time>
      </trkpt>
      <trkpt lat="44.37491" lon="6.4048">
        <ele>2260</ele>
        <time>2021-08-21T12:03:45Z</time>
      </trkpt>
      <trkpt lat="44.37504" lon="6.40478">
        <ele>2263</ele>
        <time>2021-08-21T12:04:06Z</time>
      </trkpt>
      <trkpt lat="44.3752" lon="6.40475">
        <ele>2265.6000976562</ele>
        <time>2021-08-21T12:04:29Z</time>
      </trkpt>
      <trkpt lat="44.37532" lon="6.40462">
        <ele>2267.3999023438</ele>
        <time>2021-08-21T12:04:52Z</time>
      </trkpt>
      <trkpt lat="44.37536" lon="6.40453">
        <ele>2267</ele>
        <time>2021-08-21T12:05:14Z</time>
      </trkpt>
      <trkpt lat="44.37544" lon="6.40434">
        <ele>2268.1999511719</ele>
        <time>2021-08-21T12:05:34Z</time>
      </trkpt>
      <trkpt lat="44.37547" lon="6.40425">
        <ele>2269.6000976562</ele>
        <time>2021-08-21T12:05:49Z</time>
      </trkpt>
      <trkpt lat="44.37553" lon="6.40409">
        <ele>2269.3999023438</ele>
        <time>2021-08-21T12:06:13Z</time>
      </trkpt>
      <trkpt lat="44.37556" lon="6.40399">
        <ele>2269.6000976562</ele>
        <time>2021-08-21T12:06:21Z</time>
      </trkpt>
      <trkpt lat="44.37558" lon="6.40391">
        <ele>2270</ele>
        <time>2021-08-21T12:06:28Z</time>
      </trkpt>
      <trkpt lat="44.37561" lon="6.40376">
        <ele>2270</ele>
        <time>2021-08-21T12:06:39Z</time>
      </trkpt>
      <trkpt lat="44.37562" lon="6.40372">
        <ele>2270</ele>
        <time>2021-08-21T12:06:42Z</time>
      </trkpt>
      <trkpt lat="44.37566" lon="6.40356">
        <ele>2270</ele>
        <time>2021-08-21T12:06:54Z</time>
      </trkpt>
      <trkpt lat="44.37575" lon="6.40334">
        <ele>2271.6000976562</ele>
        <time>2021-08-21T12:07:14Z</time>
      </trkpt>
      <trkpt lat="44.37586" lon="6.40313">
        <ele>2272.8000488281</ele>
        <time>2021-08-21T12:07:35Z</time>
      </trkpt>
      <trkpt lat="44.3759" lon="6.40304">
        <ele>2276.1999511719</ele>
        <time>2021-08-21T12:07:45Z</time>
      </trkpt>
      <trkpt lat="44.37598" lon="6.40288">
        <ele>2276.8000488281</ele>
        <time>2021-08-21T12:08:03Z</time>
      </trkpt>
      <trkpt lat="44.37606" lon="6.40269">
        <ele>2277.8000488281</ele>
        <time>2021-08-21T12:08:25Z</time>
      </trkpt>
      <trkpt lat="44.37614" lon="6.40254">
        <ele>2278.8000488281</ele>
        <time>2021-08-21T12:08:42Z</time>
      </trkpt>
      <trkpt lat="44.37617" lon="6.40248">
        <ele>2279.1999511719</ele>
        <time>2021-08-21T12:09:04Z</time>
      </trkpt>
      <trkpt lat="44.3762" lon="6.40247">
        <ele>2279.6000976562</ele>
        <time>2021-08-21T12:09:22Z</time>
      </trkpt>
      <trkpt lat="44.37635" lon="6.40247">
        <ele>2280.6000976562</ele>
        <time>2021-08-21T12:09:43Z</time>
      </trkpt>
      <trkpt lat="44.37642" lon="6.40248">
        <ele>2280</ele>
        <time>2021-08-21T12:09:53Z</time>
      </trkpt>
      <trkpt lat="44.37653" lon="6.40244">
        <ele>2280</ele>
        <time>2021-08-21T12:10:13Z</time>
      </trkpt>
      <trkpt lat="44.37665" lon="6.40245">
        <ele>2280.1999511719</ele>
        <time>2021-08-21T12:10:29Z</time>
      </trkpt>
      <trkpt lat="44.37682" lon="6.40253">
        <ele>2279.3999023438</ele>
        <time>2021-08-21T12:10:49Z</time>
      </trkpt>
      <trkpt lat="44.37695" lon="6.40261">
        <ele>2280.6000976562</ele>
        <time>2021-08-21T12:11:04Z</time>
      </trkpt>
      <trkpt lat="44.37701" lon="6.40263">
        <ele>2279.6000976562</ele>
        <time>2021-08-21T12:11:11Z</time>
      </trkpt>
      <trkpt lat="44.37714" lon="6.40262">
        <ele>2278.6000976562</ele>
        <time>2021-08-21T12:11:27Z</time>
      </trkpt>
      <trkpt lat="44.37725" lon="6.40268">
        <ele>2277.8000488281</ele>
        <time>2021-08-21T12:11:42Z</time>
      </trkpt>
      <trkpt lat="44.37728" lon="6.40271">
        <ele>2276.8000488281</ele>
        <time>2021-08-21T12:11:46Z</time>
      </trkpt>
      <trkpt lat="44.37736" lon="6.40275">
        <ele>2274.6000976562</ele>
        <time>2021-08-21T12:12:02Z</time>
      </trkpt>
      <trkpt lat="44.37744" lon="6.40275">
        <ele>2272.8000488281</ele>
        <time>2021-08-21T12:12:16Z</time>
      </trkpt>
      <trkpt lat="44.3775" lon="6.40271">
        <ele>2271</ele>
        <time>2021-08-21T12:12:32Z</time>
      </trkpt>
      <trkpt lat="44.37749" lon="6.40271">
        <ele>2269.8000488281</ele>
        <time>2021-08-21T12:14:05Z</time>
      </trkpt>
      <trkpt lat="44.37752" lon="6.40272">
        <ele>2271</ele>
        <time>2021-08-21T12:14:56Z</time>
      </trkpt>
      <trkpt lat="44.37754" lon="6.40274">
        <ele>2272</ele>
        <time>2021-08-21T12:15:24Z</time>
      </trkpt>
      <trkpt lat="44.37754" lon="6.40273">
        <ele>2272.6000976562</ele>
        <time>2021-08-21T12:16:03Z</time>
      </trkpt>
      <trkpt lat="44.37754" lon="6.40274">
        <ele>2271</ele>
        <time>2021-08-21T12:16:10Z</time>
      </trkpt>
      <trkpt lat="44.37754" lon="6.40273">
        <ele>2271</ele>
        <time>2021-08-21T12:17:35Z</time>
      </trkpt>
      <trkpt lat="44.37755" lon="6.40273">
        <ele>2270.8000488281</ele>
        <time>2021-08-21T12:18:18Z</time>
      </trkpt>
      <trkpt lat="44.37754" lon="6.40276">
        <ele>2270.6000976562</ele>
        <time>2021-08-21T12:18:38Z</time>
      </trkpt>
      <trkpt lat="44.37756" lon="6.40277">
        <ele>2270</ele>
        <time>2021-08-21T12:19:10Z</time>
      </trkpt>
      <trkpt lat="44.3776" lon="6.40277">
        <ele>2269.8000488281</ele>
        <time>2021-08-21T12:19:32Z</time>
      </trkpt>
      <trkpt lat="44.37762" lon="6.40277">
        <ele>2269.6000976562</ele>
        <time>2021-08-21T12:19:34Z</time>
      </trkpt>
      <trkpt lat="44.37767" lon="6.40279">
        <ele>2269</ele>
        <time>2021-08-21T12:19:38Z</time>
      </trkpt>
      <trkpt lat="44.37789" lon="6.4029">
        <ele>2268.8000488281</ele>
        <time>2021-08-21T12:19:54Z</time>
      </trkpt>
      <trkpt lat="44.37804" lon="6.40301">
        <ele>2270</ele>
        <time>2021-08-21T12:20:08Z</time>
      </trkpt>
      <trkpt lat="44.37812" lon="6.40306">
        <ele>2273</ele>
        <time>2021-08-21T12:20:17Z</time>
      </trkpt>
      <trkpt lat="44.37826" lon="6.40312">
        <ele>2276.1999511719</ele>
        <time>2021-08-21T12:20:30Z</time>
      </trkpt>
      <trkpt lat="44.37841" lon="6.4032">
        <ele>2279</ele>
        <time>2021-08-21T12:20:43Z</time>
      </trkpt>
      <trkpt lat="44.37843" lon="6.4032">
        <ele>2279.1999511719</ele>
        <time>2021-08-21T12:20:46Z</time>
      </trkpt>
      <trkpt lat="44.37854" lon="6.40328">
        <ele>2282.1999511719</ele>
        <time>2021-08-21T12:21:01Z</time>
      </trkpt>
      <trkpt lat="44.37855" lon="6.4033">
        <ele>2283</ele>
        <time>2021-08-21T12:21:03Z</time>
      </trkpt>
      <trkpt lat="44.37865" lon="6.40335">
        <ele>2286.6000976562</ele>
        <time>2021-08-21T12:21:16Z</time>
      </trkpt>
      <trkpt lat="44.37872" lon="6.40339">
        <ele>2289.6000976562</ele>
        <time>2021-08-21T12:21:27Z</time>
      </trkpt>
      <trkpt lat="44.37875" lon="6.40341">
        <ele>2291</ele>
        <time>2021-08-21T12:21:32Z</time>
      </trkpt>
      <trkpt lat="44.37885" lon="6.4034">
        <ele>2293.6000976562</ele>
        <time>2021-08-21T12:21:44Z</time>
      </trkpt>
      <trkpt lat="44.37887" lon="6.40343">
        <ele>2294.3999023438</ele>
        <time>2021-08-21T12:21:47Z</time>
      </trkpt>
      <trkpt lat="44.37895" lon="6.40355">
        <ele>2297.1999511719</ele>
        <time>2021-08-21T12:22:02Z</time>
      </trkpt>
      <trkpt lat="44.37902" lon="6.40364">
        <ele>2300</ele>
        <time>2021-08-21T12:22:17Z</time>
      </trkpt>
      <trkpt lat="44.37909" lon="6.4037">
        <ele>2303.1999511719</ele>
        <time>2021-08-21T12:22:31Z</time>
      </trkpt>
      <trkpt lat="44.37917" lon="6.40373">
        <ele>2306</ele>
        <time>2021-08-21T12:22:48Z</time>
      </trkpt>
      <trkpt lat="44.37921" lon="6.40374">
        <ele>2309.1999511719</ele>
        <time>2021-08-21T12:22:57Z</time>
      </trkpt>
      <trkpt lat="44.37928" lon="6.40376">
        <ele>2312.6000976562</ele>
        <time>2021-08-21T12:23:12Z</time>
      </trkpt>
      <trkpt lat="44.37931" lon="6.4038">
        <ele>2315.6000976562</ele>
        <time>2021-08-21T12:23:21Z</time>
      </trkpt>
      <trkpt lat="44.37939" lon="6.40376">
        <ele>2318.1999511719</ele>
        <time>2021-08-21T12:23:35Z</time>
      </trkpt>
      <trkpt lat="44.37943" lon="6.40374">
        <ele>2319.6000976562</ele>
        <time>2021-08-21T12:23:40Z</time>
      </trkpt>
      <trkpt lat="44.37945" lon="6.40376">
        <ele>2320.8000488281</ele>
        <time>2021-08-21T12:23:43Z</time>
      </trkpt>
      <trkpt lat="44.37953" lon="6.40378">
        <ele>2324.1999511719</ele>
        <time>2021-08-21T12:23:56Z</time>
      </trkpt>
      <trkpt lat="44.37954" lon="6.40376">
        <ele>2324.6000976562</ele>
        <time>2021-08-21T12:24:11Z</time>
      </trkpt>
      <trkpt lat="44.37955" lon="6.40378">
        <ele>2324.8000488281</ele>
        <time>2021-08-21T12:24:16Z</time>
      </trkpt>
      <trkpt lat="44.37956" lon="6.40382">
        <ele>2325</ele>
        <time>2021-08-21T12:24:19Z</time>
      </trkpt>
      <trkpt lat="44.37962" lon="6.4039">
        <ele>2324.6000976562</ele>
        <time>2021-08-21T12:24:34Z</time>
      </trkpt>
      <trkpt lat="44.37959" lon="6.40387">
        <ele>2324.8000488281</ele>
        <time>2021-08-21T12:24:59Z</time>
      </trkpt>
      <trkpt lat="44.37953" lon="6.40377">
        <ele>2324.8000488281</ele>
        <time>2021-08-21T12:25:17Z</time>
      </trkpt>
      <trkpt lat="44.37952" lon="6.40375">
        <ele>2324.3999023438</ele>
        <time>2021-08-21T12:25:46Z</time>
      </trkpt>
      <trkpt lat="44.37947" lon="6.40368">
        <ele>2326.3999023438</ele>
        <time>2021-08-21T12:25:55Z</time>
      </trkpt>
      <trkpt lat="44.37945" lon="6.40361">
        <ele>2323.1999511719</ele>
        <time>2021-08-21T12:26:11Z</time>
      </trkpt>
      <trkpt lat="44.37947" lon="6.40361">
        <ele>2321.3999023438</ele>
        <time>2021-08-21T12:26:51Z</time>
      </trkpt>
      <trkpt lat="44.37947" lon="6.40358">
        <ele>2321.8000488281</ele>
        <time>2021-08-21T12:27:33Z</time>
      </trkpt>
      <trkpt lat="44.37945" lon="6.40361">
        <ele>2322.1999511719</ele>
        <time>2021-08-21T12:27:49Z</time>
      </trkpt>
      <trkpt lat="44.37942" lon="6.40367">
        <ele>2323</ele>
        <time>2021-08-21T12:28:32Z</time>
      </trkpt>
      <trkpt lat="44.37936" lon="6.40374">
        <ele>2323.3999023438</ele>
        <time>2021-08-21T12:28:47Z</time>
      </trkpt>
      <trkpt lat="44.37927" lon="6.40369">
        <ele>2320.1999511719</ele>
        <time>2021-08-21T12:29:01Z</time>
      </trkpt>
      <trkpt lat="44.37924" lon="6.40364">
        <ele>2317</ele>
        <time>2021-08-21T12:29:12Z</time>
      </trkpt>
      <trkpt lat="44.37916" lon="6.40364">
        <ele>2313.6000976562</ele>
        <time>2021-08-21T12:29:26Z</time>
      </trkpt>
      <trkpt lat="44.37912" lon="6.40364">
        <ele>2311.6000976562</ele>
        <time>2021-08-21T12:29:32Z</time>
      </trkpt>
      <trkpt lat="44.37907" lon="6.40362">
        <ele>2308.3999023438</ele>
        <time>2021-08-21T12:29:42Z</time>
      </trkpt>
      <trkpt lat="44.37902" lon="6.40355">
        <ele>2306.3999023438</ele>
        <time>2021-08-21T12:29:55Z</time>
      </trkpt>
      <trkpt lat="44.37896" lon="6.40357">
        <ele>2303.8000488281</ele>
        <time>2021-08-21T12:30:02Z</time>
      </trkpt>
      <trkpt lat="44.37894" lon="6.40355">
        <ele>2302.1999511719</ele>
        <time>2021-08-21T12:30:05Z</time>
      </trkpt>
      <trkpt lat="44.37886" lon="6.40346">
        <ele>2299.3999023438</ele>
        <time>2021-08-21T12:30:13Z</time>
      </trkpt>
      <trkpt lat="44.37879" lon="6.40341">
        <ele>2297</ele>
        <time>2021-08-21T12:30:20Z</time>
      </trkpt>
      <trkpt lat="44.3787" lon="6.40339">
        <ele>2295</ele>
        <time>2021-08-21T12:30:30Z</time>
      </trkpt>
      <trkpt lat="44.37867" lon="6.40332">
        <ele>2293.3999023438</ele>
        <time>2021-08-21T12:30:36Z</time>
      </trkpt>
      <trkpt lat="44.37865" lon="6.40331">
        <ele>2292.8000488281</ele>
        <time>2021-08-21T12:30:38Z</time>
      </trkpt>
      <trkpt lat="44.37863" lon="6.40329">
        <ele>2292.1999511719</ele>
        <time>2021-08-21T12:30:41Z</time>
      </trkpt>
      <trkpt lat="44.37855" lon="6.40322">
        <ele>2289.6000976562</ele>
        <time>2021-08-21T12:30:51Z</time>
      </trkpt>
      <trkpt lat="44.37843" lon="6.40314">
        <ele>2286.3999023438</ele>
        <time>2021-08-21T12:31:01Z</time>
      </trkpt>
      <trkpt lat="44.37831" lon="6.40313">
        <ele>2282.6000976562</ele>
        <time>2021-08-21T12:31:10Z</time>
      </trkpt>
      <trkpt lat="44.37817" lon="6.40307">
        <ele>2279.3999023438</ele>
        <time>2021-08-21T12:31:22Z</time>
      </trkpt>
      <trkpt lat="44.37802" lon="6.403">
        <ele>2276.6000976562</ele>
        <time>2021-08-21T12:31:36Z</time>
      </trkpt>
      <trkpt lat="44.37794" lon="6.40295">
        <ele>2273.6000976562</ele>
        <time>2021-08-21T12:31:44Z</time>
      </trkpt>
      <trkpt lat="44.37779" lon="6.40289">
        <ele>2270.3999023438</ele>
        <time>2021-08-21T12:31:56Z</time>
      </trkpt>
      <trkpt lat="44.37776" lon="6.40288">
        <ele>2269.6000976562</ele>
        <time>2021-08-21T12:31:58Z</time>
      </trkpt>
      <trkpt lat="44.37757" lon="6.40275">
        <ele>2268.8000488281</ele>
        <time>2021-08-21T12:32:16Z</time>
      </trkpt>
      <trkpt lat="44.37755" lon="6.4027">
        <ele>2270.3999023438</ele>
        <time>2021-08-21T12:32:33Z</time>
      </trkpt>
      <trkpt lat="44.37753" lon="6.4027">
        <ele>2269.3999023438</ele>
        <time>2021-08-21T12:32:56Z</time>
      </trkpt>
      <trkpt lat="44.37752" lon="6.40271">
        <ele>2270.6000976562</ele>
        <time>2021-08-21T12:33:26Z</time>
      </trkpt>
      <trkpt lat="44.37752" lon="6.40269">
        <ele>2272.1999511719</ele>
        <time>2021-08-21T12:34:07Z</time>
      </trkpt>
      <trkpt lat="44.37751" lon="6.40272">
        <ele>2271.6000976562</ele>
        <time>2021-08-21T12:34:25Z</time>
      </trkpt>
      <trkpt lat="44.37754" lon="6.40271">
        <ele>2271.1999511719</ele>
        <time>2021-08-21T12:34:44Z</time>
      </trkpt>
      <trkpt lat="44.37756" lon="6.40264">
        <ele>2270.3999023438</ele>
        <time>2021-08-21T12:35:02Z</time>
      </trkpt>
      <trkpt lat="44.37765" lon="6.4026">
        <ele>2267.3999023438</ele>
        <time>2021-08-21T12:35:23Z</time>
      </trkpt>
      <trkpt lat="44.37774" lon="6.40257">
        <ele>2264.3999023438</ele>
        <time>2021-08-21T12:35:40Z</time>
      </trkpt>
      <trkpt lat="44.37779" lon="6.40252">
        <ele>2261.3999023438</ele>
        <time>2021-08-21T12:35:54Z</time>
      </trkpt>
      <trkpt lat="44.37787" lon="6.4025">
        <ele>2258.3999023438</ele>
        <time>2021-08-21T12:36:05Z</time>
      </trkpt>
      <trkpt lat="44.37797" lon="6.40249">
        <ele>2255</ele>
        <time>2021-08-21T12:36:19Z</time>
      </trkpt>
      <trkpt lat="44.37799" lon="6.40249">
        <ele>2254.3999023438</ele>
        <time>2021-08-21T12:36:21Z</time>
      </trkpt>
      <trkpt lat="44.37807" lon="6.4024">
        <ele>2252.1999511719</ele>
        <time>2021-08-21T12:36:40Z</time>
      </trkpt>
      <trkpt lat="44.37807" lon="6.4023">
        <ele>2248.8000488281</ele>
        <time>2021-08-21T12:36:52Z</time>
      </trkpt>
      <trkpt lat="44.37809" lon="6.40219">
        <ele>2245.8000488281</ele>
        <time>2021-08-21T12:37:05Z</time>
      </trkpt>
      <trkpt lat="44.3781" lon="6.40213">
        <ele>2242.8000488281</ele>
        <time>2021-08-21T12:37:16Z</time>
      </trkpt>
      <trkpt lat="44.37812" lon="6.402">
        <ele>2239.6000976562</ele>
        <time>2021-08-21T12:37:31Z</time>
      </trkpt>
      <trkpt lat="44.37813" lon="6.40193">
        <ele>2236.3999023438</ele>
        <time>2021-08-21T12:37:45Z</time>
      </trkpt>
      <trkpt lat="44.37812" lon="6.40184">
        <ele>2235</ele>
        <time>2021-08-21T12:38:00Z</time>
      </trkpt>
      <trkpt lat="44.37811" lon="6.4017">
        <ele>2232</ele>
        <time>2021-08-21T12:38:14Z</time>
      </trkpt>
      <trkpt lat="44.37812" lon="6.40166">
        <ele>2228.8000488281</ele>
        <time>2021-08-21T12:38:26Z</time>
      </trkpt>
      <trkpt lat="44.3781" lon="6.40163">
        <ele>2228.3999023438</ele>
        <time>2021-08-21T12:39:03Z</time>
      </trkpt>
      <trkpt lat="44.37811" lon="6.40146">
        <ele>2225.1999511719</ele>
        <time>2021-08-21T12:39:22Z</time>
      </trkpt>
      <trkpt lat="44.37816" lon="6.40138">
        <ele>2222.1999511719</ele>
        <time>2021-08-21T12:39:33Z</time>
      </trkpt>
      <trkpt lat="44.37818" lon="6.40123">
        <ele>2219</ele>
        <time>2021-08-21T12:39:47Z</time>
      </trkpt>
      <trkpt lat="44.3782" lon="6.40119">
        <ele>2217.1999511719</ele>
        <time>2021-08-21T12:39:51Z</time>
      </trkpt>
      <trkpt lat="44.37824" lon="6.40108">
        <ele>2214</ele>
        <time>2021-08-21T12:40:04Z</time>
      </trkpt>
      <trkpt lat="44.37827" lon="6.40098">
        <ele>2211</ele>
        <time>2021-08-21T12:40:15Z</time>
      </trkpt>
      <trkpt lat="44.37831" lon="6.40086">
        <ele>2207.8000488281</ele>
        <time>2021-08-21T12:40:28Z</time>
      </trkpt>
      <trkpt lat="44.37835" lon="6.4008">
        <ele>2206</ele>
        <time>2021-08-21T12:40:55Z</time>
      </trkpt>
      <trkpt lat="44.37833" lon="6.40072">
        <ele>2205.6000976562</ele>
        <time>2021-08-21T12:41:30Z</time>
      </trkpt>
      <trkpt lat="44.37838" lon="6.40059">
        <ele>2204.3999023438</ele>
        <time>2021-08-21T12:41:55Z</time>
      </trkpt>
      <trkpt lat="44.37843" lon="6.40059">
        <ele>2203.1999511719</ele>
        <time>2021-08-21T12:42:25Z</time>
      </trkpt>
      <trkpt lat="44.37843" lon="6.40058">
        <ele>2203</ele>
        <time>2021-08-21T12:42:34Z</time>
      </trkpt>
      <trkpt lat="44.37846" lon="6.40059">
        <ele>2202.8000488281</ele>
        <time>2021-08-21T12:43:18Z</time>
      </trkpt>
      <trkpt lat="44.37844" lon="6.40049">
        <ele>2203.1999511719</ele>
        <time>2021-08-21T12:44:08Z</time>
      </trkpt>
      <trkpt lat="44.37843" lon="6.40047">
        <ele>2202.3999023438</ele>
        <time>2021-08-21T12:44:39Z</time>
      </trkpt>
      <trkpt lat="44.37854" lon="6.4003">
        <ele>2201.3999023438</ele>
        <time>2021-08-21T12:45:10Z</time>
      </trkpt>
      <trkpt lat="44.37868" lon="6.40011">
        <ele>2198.3999023438</ele>
        <time>2021-08-21T12:45:35Z</time>
      </trkpt>
      <trkpt lat="44.37884" lon="6.39998">
        <ele>2195.1999511719</ele>
        <time>2021-08-21T12:45:58Z</time>
      </trkpt>
      <trkpt lat="44.37895" lon="6.39986">
        <ele>2192</ele>
        <time>2021-08-21T12:46:21Z</time>
      </trkpt>
      <trkpt lat="44.37908" lon="6.3998">
        <ele>2189</ele>
        <time>2021-08-21T12:46:37Z</time>
      </trkpt>
      <trkpt lat="44.37925" lon="6.39979">
        <ele>2186</ele>
        <time>2021-08-21T12:46:57Z</time>
      </trkpt>
      <trkpt lat="44.37944" lon="6.39981">
        <ele>2183</ele>
        <time>2021-08-21T12:47:19Z</time>
      </trkpt>
      <trkpt lat="44.37954" lon="6.39978">
        <ele>2179.8000488281</ele>
        <time>2021-08-21T12:47:34Z</time>
      </trkpt>
      <trkpt lat="44.37967" lon="6.39975">
        <ele>2176.8000488281</ele>
        <time>2021-08-21T12:47:48Z</time>
      </trkpt>
      <trkpt lat="44.37981" lon="6.39978">
        <ele>2173.6000976562</ele>
        <time>2021-08-21T12:48:02Z</time>
      </trkpt>
      <trkpt lat="44.3799" lon="6.39978">
        <ele>2170.6000976562</ele>
        <time>2021-08-21T12:48:17Z</time>
      </trkpt>
      <trkpt lat="44.38007" lon="6.3998">
        <ele>2167.3999023438</ele>
        <time>2021-08-21T12:48:40Z</time>
      </trkpt>
      <trkpt lat="44.38016" lon="6.3998">
        <ele>2164.1999511719</ele>
        <time>2021-08-21T12:48:55Z</time>
      </trkpt>
      <trkpt lat="44.38028" lon="6.39987">
        <ele>2161</ele>
        <time>2021-08-21T12:49:12Z</time>
      </trkpt>
      <trkpt lat="44.3804" lon="6.39992">
        <ele>2157.8000488281</ele>
        <time>2021-08-21T12:49:29Z</time>
      </trkpt>
      <trkpt lat="44.38055" lon="6.39997">
        <ele>2154.6000976562</ele>
        <time>2021-08-21T12:49:48Z</time>
      </trkpt>
      <trkpt lat="44.38068" lon="6.40005">
        <ele>2151.8000488281</ele>
        <time>2021-08-21T12:50:11Z</time>
      </trkpt>
      <trkpt lat="44.3807" lon="6.40005">
        <ele>2151.1999511719</ele>
        <time>2021-08-21T12:50:14Z</time>
      </trkpt>
      <trkpt lat="44.38085" lon="6.40008">
        <ele>2147.8000488281</ele>
        <time>2021-08-21T12:50:36Z</time>
      </trkpt>
      <trkpt lat="44.38093" lon="6.40013">
        <ele>2145</ele>
        <time>2021-08-21T12:50:49Z</time>
      </trkpt>
      <trkpt lat="44.38101" lon="6.40017">
        <ele>2142.6000976562</ele>
        <time>2021-08-21T12:51:04Z</time>
      </trkpt>
      <trkpt lat="44.38116" lon="6.40024">
        <ele>2139.6000976562</ele>
        <time>2021-08-21T12:51:25Z</time>
      </trkpt>
      <trkpt lat="44.38132" lon="6.40026">
        <ele>2138.1999511719</ele>
        <time>2021-08-21T12:51:48Z</time>
      </trkpt>
      <trkpt lat="44.3815" lon="6.40024">
        <ele>2136.3999023438</ele>
        <time>2021-08-21T12:52:11Z</time>
      </trkpt>
      <trkpt lat="44.38166" lon="6.40029">
        <ele>2133.3999023438</ele>
        <time>2021-08-21T12:52:33Z</time>
      </trkpt>
      <trkpt lat="44.38181" lon="6.40031">
        <ele>2132.1999511719</ele>
        <time>2021-08-21T12:52:50Z</time>
      </trkpt>
      <trkpt lat="44.38186" lon="6.40011">
        <ele>2131.1999511719</ele>
        <time>2021-08-21T12:53:10Z</time>
      </trkpt>
      <trkpt lat="44.38192" lon="6.39996">
        <ele>2130</ele>
        <time>2021-08-21T12:53:31Z</time>
      </trkpt>
      <trkpt lat="44.38204" lon="6.39987">
        <ele>2127.3999023438</ele>
        <time>2021-08-21T12:53:56Z</time>
      </trkpt>
      <trkpt lat="44.38213" lon="6.39984">
        <ele>2124.8000488281</ele>
        <time>2021-08-21T12:54:16Z</time>
      </trkpt>
      <trkpt lat="44.38223" lon="6.39972">
        <ele>2121.8000488281</ele>
        <time>2021-08-21T12:54:39Z</time>
      </trkpt>
      <trkpt lat="44.38235" lon="6.39962">
        <ele>2118.8000488281</ele>
        <time>2021-08-21T12:54:59Z</time>
      </trkpt>
      <trkpt lat="44.3825" lon="6.39955">
        <ele>2115.8000488281</ele>
        <time>2021-08-21T12:55:18Z</time>
      </trkpt>
      <trkpt lat="44.38261" lon="6.39953">
        <ele>2113.3999023438</ele>
        <time>2021-08-21T12:55:39Z</time>
      </trkpt>
      <trkpt lat="44.38276" lon="6.3995">
        <ele>2111.1999511719</ele>
        <time>2021-08-21T12:55:59Z</time>
      </trkpt>
      <trkpt lat="44.38294" lon="6.39938">
        <ele>2109</ele>
        <time>2021-08-21T12:56:22Z</time>
      </trkpt>
      <trkpt lat="44.38316" lon="6.39922">
        <ele>2108</ele>
        <time>2021-08-21T12:56:47Z</time>
      </trkpt>
      <trkpt lat="44.38325" lon="6.39908">
        <ele>2106.3999023438</ele>
        <time>2021-08-21T12:57:10Z</time>
      </trkpt>
      <trkpt lat="44.38317" lon="6.39901">
        <ele>2104.8000488281</ele>
        <time>2021-08-21T12:57:41Z</time>
      </trkpt>
      <trkpt lat="44.38315" lon="6.39898">
        <ele>2104</ele>
        <time>2021-08-21T12:58:09Z</time>
      </trkpt>
      <trkpt lat="44.38313" lon="6.399">
        <ele>2102</ele>
        <time>2021-08-21T12:59:45Z</time>
      </trkpt>
      <trkpt lat="44.38299" lon="6.39901">
        <ele>2102</ele>
        <time>2021-08-21T12:59:58Z</time>
      </trkpt>
      <trkpt lat="44.38282" lon="6.39903">
        <ele>2099.3999023438</ele>
        <time>2021-08-21T13:00:15Z</time>
      </trkpt>
      <trkpt lat="44.38273" lon="6.39905">
        <ele>2098.8000488281</ele>
        <time>2021-08-21T13:00:24Z</time>
      </trkpt>
      <trkpt lat="44.3827" lon="6.39907">
        <ele>2098.6000976562</ele>
        <time>2021-08-21T13:00:27Z</time>
      </trkpt>
      <trkpt lat="44.38249" lon="6.39913">
        <ele>2096.1999511719</ele>
        <time>2021-08-21T13:00:45Z</time>
      </trkpt>
      <trkpt lat="44.38243" lon="6.39914">
        <ele>2095.6000976562</ele>
        <time>2021-08-21T13:00:49Z</time>
      </trkpt>
      <trkpt lat="44.38224" lon="6.39918">
        <ele>2094.1999511719</ele>
        <time>2021-08-21T13:01:05Z</time>
      </trkpt>
      <trkpt lat="44.38203" lon="6.39921">
        <ele>2091.3999023438</ele>
        <time>2021-08-21T13:01:22Z</time>
      </trkpt>
      <trkpt lat="44.38199" lon="6.3992">
        <ele>2091.1999511719</ele>
        <time>2021-08-21T13:01:26Z</time>
      </trkpt>
      <trkpt lat="44.38192" lon="6.39917">
        <ele>2090.1999511719</ele>
        <time>2021-08-21T13:01:33Z</time>
      </trkpt>
      <trkpt lat="44.38189" lon="6.39915">
        <ele>2090.1999511719</ele>
        <time>2021-08-21T13:01:35Z</time>
      </trkpt>
      <trkpt lat="44.38177" lon="6.3991">
        <ele>2089.3999023438</ele>
        <time>2021-08-21T13:01:45Z</time>
      </trkpt>
      <trkpt lat="44.38171" lon="6.39907">
        <ele>2088.8000488281</ele>
        <time>2021-08-21T13:01:49Z</time>
      </trkpt>
      <trkpt lat="44.38165" lon="6.39901">
        <ele>2088</ele>
        <time>2021-08-21T13:01:55Z</time>
      </trkpt>
      <trkpt lat="44.38154" lon="6.39884">
        <ele>2087.1999511719</ele>
        <time>2021-08-21T13:02:08Z</time>
      </trkpt>
      <trkpt lat="44.38134" lon="6.39871">
        <ele>2085.1999511719</ele>
        <time>2021-08-21T13:02:27Z</time>
      </trkpt>
      <trkpt lat="44.38122" lon="6.39861">
        <ele>2083.6000976562</ele>
        <time>2021-08-21T13:02:40Z</time>
      </trkpt>
      <trkpt lat="44.38109" lon="6.39847">
        <ele>2081.8000488281</ele>
        <time>2021-08-21T13:02:55Z</time>
      </trkpt>
      <trkpt lat="44.38101" lon="6.39834">
        <ele>2080.8000488281</ele>
        <time>2021-08-21T13:03:08Z</time>
      </trkpt>
      <trkpt lat="44.38089" lon="6.39822">
        <ele>2078.8000488281</ele>
        <time>2021-08-21T13:03:23Z</time>
      </trkpt>
      <trkpt lat="44.38087" lon="6.39821">
        <ele>2078.8000488281</ele>
        <time>2021-08-21T13:03:25Z</time>
      </trkpt>
      <trkpt lat="44.38081" lon="6.39818">
        <ele>2078.1999511719</ele>
        <time>2021-08-21T13:03:31Z</time>
      </trkpt>
      <trkpt lat="44.38065" lon="6.39814">
        <ele>2076.3999023438</ele>
        <time>2021-08-21T13:03:47Z</time>
      </trkpt>
      <trkpt lat="44.38051" lon="6.39804">
        <ele>2074.3999023438</ele>
        <time>2021-08-21T13:04:04Z</time>
      </trkpt>
      <trkpt lat="44.38043" lon="6.39795">
        <ele>2073</ele>
        <time>2021-08-21T13:04:12Z</time>
      </trkpt>
      <trkpt lat="44.38035" lon="6.39787">
        <ele>2072</ele>
        <time>2021-08-21T13:04:20Z</time>
      </trkpt>
      <trkpt lat="44.3802" lon="6.39774">
        <ele>2069.6000976562</ele>
        <time>2021-08-21T13:04:37Z</time>
      </trkpt>
      <trkpt lat="44.38006" lon="6.3977">
        <ele>2068</ele>
        <time>2021-08-21T13:04:52Z</time>
      </trkpt>
      <trkpt lat="44.38004" lon="6.39769">
        <ele>2067.1999511719</ele>
        <time>2021-08-21T13:04:57Z</time>
      </trkpt>
      <trkpt lat="44.37997" lon="6.39763">
        <ele>2066.1999511719</ele>
        <time>2021-08-21T13:05:10Z</time>
      </trkpt>
      <trkpt lat="44.37978" lon="6.39749">
        <ele>2064.6000976562</ele>
        <time>2021-08-21T13:05:31Z</time>
      </trkpt>
      <trkpt lat="44.37974" lon="6.39745">
        <ele>2063.1999511719</ele>
        <time>2021-08-21T13:05:39Z</time>
      </trkpt>
      <trkpt lat="44.37962" lon="6.39733">
        <ele>2061.3999023438</ele>
        <time>2021-08-21T13:05:55Z</time>
      </trkpt>
      <trkpt lat="44.37956" lon="6.39725">
        <ele>2060</ele>
        <time>2021-08-21T13:06:03Z</time>
      </trkpt>
      <trkpt lat="44.37943" lon="6.3972">
        <ele>2058.6000976562</ele>
        <time>2021-08-21T13:06:16Z</time>
      </trkpt>
      <trkpt lat="44.37942" lon="6.39719">
        <ele>2058.3999023438</ele>
        <time>2021-08-21T13:06:17Z</time>
      </trkpt>
      <trkpt lat="44.3792" lon="6.39719">
        <ele>2056.3999023438</ele>
        <time>2021-08-21T13:06:35Z</time>
      </trkpt>
      <trkpt lat="44.37903" lon="6.39712">
        <ele>2054.3999023438</ele>
        <time>2021-08-21T13:06:51Z</time>
      </trkpt>
      <trkpt lat="44.37888" lon="6.39706">
        <ele>2053</ele>
        <time>2021-08-21T13:07:05Z</time>
      </trkpt>
      <trkpt lat="44.37883" lon="6.39707">
        <ele>2052.3999023438</ele>
        <time>2021-08-21T13:07:09Z</time>
      </trkpt>
      <trkpt lat="44.37869" lon="6.39695">
        <ele>2050.6000976562</ele>
        <time>2021-08-21T13:07:22Z</time>
      </trkpt>
      <trkpt lat="44.37858" lon="6.39682">
        <ele>2049.1999511719</ele>
        <time>2021-08-21T13:07:36Z</time>
      </trkpt>
      <trkpt lat="44.37847" lon="6.39657">
        <ele>2046.4000244141</ele>
        <time>2021-08-21T13:07:57Z</time>
      </trkpt>
      <trkpt lat="44.37826" lon="6.39646">
        <ele>2043.5999755859</ele>
        <time>2021-08-21T13:08:19Z</time>
      </trkpt>
      <trkpt lat="44.37817" lon="6.39641">
        <ele>2042.4000244141</ele>
        <time>2021-08-21T13:08:29Z</time>
      </trkpt>
      <trkpt lat="44.37798" lon="6.39647">
        <ele>2039.8000488281</ele>
        <time>2021-08-21T13:08:48Z</time>
      </trkpt>
      <trkpt lat="44.3779" lon="6.39662">
        <ele>2038</ele>
        <time>2021-08-21T13:09:05Z</time>
      </trkpt>
      <trkpt lat="44.37779" lon="6.39676">
        <ele>2037.1999511719</ele>
        <time>2021-08-21T13:09:31Z</time>
      </trkpt>
      <trkpt lat="44.37763" lon="6.39695">
        <ele>2035.1999511719</ele>
        <time>2021-08-21T13:09:54Z</time>
      </trkpt>
      <trkpt lat="44.37761" lon="6.39697">
        <ele>2034.8000488281</ele>
        <time>2021-08-21T13:09:56Z</time>
      </trkpt>
      <trkpt lat="44.37744" lon="6.39697">
        <ele>2032.8000488281</ele>
        <time>2021-08-21T13:10:11Z</time>
      </trkpt>
      <trkpt lat="44.37739" lon="6.39694">
        <ele>2032.1999511719</ele>
        <time>2021-08-21T13:10:16Z</time>
      </trkpt>
      <trkpt lat="44.37725" lon="6.39689">
        <ele>2030</ele>
        <time>2021-08-21T13:10:29Z</time>
      </trkpt>
      <trkpt lat="44.37717" lon="6.39685">
        <ele>2029.1999511719</ele>
        <time>2021-08-21T13:10:37Z</time>
      </trkpt>
      <trkpt lat="44.37715" lon="6.39683">
        <ele>2028.8000488281</ele>
        <time>2021-08-21T13:10:40Z</time>
      </trkpt>
      <trkpt lat="44.37702" lon="6.39678">
        <ele>2027</ele>
        <time>2021-08-21T13:10:53Z</time>
      </trkpt>
      <trkpt lat="44.37701" lon="6.39678">
        <ele>2026.8000488281</ele>
        <time>2021-08-21T13:10:54Z</time>
      </trkpt>
      <trkpt lat="44.37697" lon="6.39676">
        <ele>2026.4000244141</ele>
        <time>2021-08-21T13:10:57Z</time>
      </trkpt>
      <trkpt lat="44.37691" lon="6.39668">
        <ele>2025.4000244141</ele>
        <time>2021-08-21T13:11:04Z</time>
      </trkpt>
      <trkpt lat="44.37681" lon="6.39665">
        <ele>2024.5999755859</ele>
        <time>2021-08-21T13:11:12Z</time>
      </trkpt>
      <trkpt lat="44.37666" lon="6.39655">
        <ele>2023</ele>
        <time>2021-08-21T13:11:27Z</time>
      </trkpt>
      <trkpt lat="44.37665" lon="6.39653">
        <ele>2022.8000488281</ele>
        <time>2021-08-21T13:11:29Z</time>
      </trkpt>
      <trkpt lat="44.37647" lon="6.39649">
        <ele>2020.8000488281</ele>
        <time>2021-08-21T13:11:47Z</time>
      </trkpt>
      <trkpt lat="44.37619" lon="6.39657">
        <ele>2018</ele>
        <time>2021-08-21T13:12:13Z</time>
      </trkpt>
      <trkpt lat="44.37592" lon="6.3967">
        <ele>2015.5999755859</ele>
        <time>2021-08-21T13:12:39Z</time>
      </trkpt>
      <trkpt lat="44.37568" lon="6.39678">
        <ele>2013.4000244141</ele>
        <time>2021-08-21T13:13:03Z</time>
      </trkpt>
      <trkpt lat="44.3754" lon="6.39688">
        <ele>2010.4000244141</ele>
        <time>2021-08-21T13:13:30Z</time>
      </trkpt>
      <trkpt lat="44.37516" lon="6.3969">
        <ele>2008.5999755859</ele>
        <time>2021-08-21T13:13:51Z</time>
      </trkpt>
      <trkpt lat="44.37502" lon="6.39695">
        <ele>2006.8000488281</ele>
        <time>2021-08-21T13:14:07Z</time>
      </trkpt>
      <trkpt lat="44.37475" lon="6.39699">
        <ele>2003.8000488281</ele>
        <time>2021-08-21T13:14:31Z</time>
      </trkpt>
      <trkpt lat="44.37465" lon="6.397">
        <ele>2003</ele>
        <time>2021-08-21T13:14:49Z</time>
      </trkpt>
      <trkpt lat="44.37448" lon="6.39702">
        <ele>2003</ele>
        <time>2021-08-21T13:15:06Z</time>
      </trkpt>
      <trkpt lat="44.37435" lon="6.39711">
        <ele>2000.4000244141</ele>
        <time>2021-08-21T13:15:21Z</time>
      </trkpt>
      <trkpt lat="44.37421" lon="6.39722">
        <ele>1998</ele>
        <time>2021-08-21T13:15:43Z</time>
      </trkpt>
      <trkpt lat="44.37406" lon="6.39725">
        <ele>1996</ele>
        <time>2021-08-21T13:16:04Z</time>
      </trkpt>
      <trkpt lat="44.37408" lon="6.39709">
        <ele>1992.8000488281</ele>
        <time>2021-08-21T13:16:18Z</time>
      </trkpt>
      <trkpt lat="44.37424" lon="6.39677">
        <ele>1989.8000488281</ele>
        <time>2021-08-21T13:16:44Z</time>
      </trkpt>
      <trkpt lat="44.37434" lon="6.39647">
        <ele>1987</ele>
        <time>2021-08-21T13:17:09Z</time>
      </trkpt>
      <trkpt lat="44.37446" lon="6.39632">
        <ele>1984</ele>
        <time>2021-08-21T13:17:27Z</time>
      </trkpt>
      <trkpt lat="44.37436" lon="6.39632">
        <ele>1981.4000244141</ele>
        <time>2021-08-21T13:17:46Z</time>
      </trkpt>
      <trkpt lat="44.37421" lon="6.39634">
        <ele>1978.4000244141</ele>
        <time>2021-08-21T13:18:01Z</time>
      </trkpt>
      <trkpt lat="44.37402" lon="6.3964">
        <ele>1975.1999511719</ele>
        <time>2021-08-21T13:18:20Z</time>
      </trkpt>
      <trkpt lat="44.37388" lon="6.39647">
        <ele>1972.1999511719</ele>
        <time>2021-08-21T13:18:39Z</time>
      </trkpt>
      <trkpt lat="44.3738" lon="6.39649">
        <ele>1969.1999511719</ele>
        <time>2021-08-21T13:18:53Z</time>
      </trkpt>
      <trkpt lat="44.37364" lon="6.3966">
        <ele>1966.1999511719</ele>
        <time>2021-08-21T13:19:13Z</time>
      </trkpt>
      <trkpt lat="44.37359" lon="6.39664">
        <ele>1965.4000244141</ele>
        <time>2021-08-21T13:19:19Z</time>
      </trkpt>
      <trkpt lat="44.37346" lon="6.39675">
        <ele>1962.1999511719</ele>
        <time>2021-08-21T13:19:35Z</time>
      </trkpt>
      <trkpt lat="44.37338" lon="6.39684">
        <ele>1959.1999511719</ele>
        <time>2021-08-21T13:19:54Z</time>
      </trkpt>
      <trkpt lat="44.37326" lon="6.39685">
        <ele>1957.1999511719</ele>
        <time>2021-08-21T13:20:09Z</time>
      </trkpt>
      <trkpt lat="44.37318" lon="6.3968">
        <ele>1955.4000244141</ele>
        <time>2021-08-21T13:20:22Z</time>
      </trkpt>
      <trkpt lat="44.37308" lon="6.39692">
        <ele>1952.4000244141</ele>
        <time>2021-08-21T13:20:42Z</time>
      </trkpt>
      <trkpt lat="44.37297" lon="6.39686">
        <ele>1949.5999755859</ele>
        <time>2021-08-21T13:20:58Z</time>
      </trkpt>
      <trkpt lat="44.37285" lon="6.39677">
        <ele>1946.4000244141</ele>
        <time>2021-08-21T13:21:18Z</time>
      </trkpt>
      <trkpt lat="44.37273" lon="6.39688">
        <ele>1943</ele>
        <time>2021-08-21T13:21:37Z</time>
      </trkpt>
      <trkpt lat="44.3727" lon="6.3969">
        <ele>1942.8000488281</ele>
        <time>2021-08-21T13:21:39Z</time>
      </trkpt>
      <trkpt lat="44.37266" lon="6.39692">
        <ele>1942</ele>
        <time>2021-08-21T13:21:43Z</time>
      </trkpt>
      <trkpt lat="44.37256" lon="6.39683">
        <ele>1939.1999511719</ele>
        <time>2021-08-21T13:21:56Z</time>
      </trkpt>
      <trkpt lat="44.37246" lon="6.39676">
        <ele>1936</ele>
        <time>2021-08-21T13:22:09Z</time>
      </trkpt>
      <trkpt lat="44.37231" lon="6.39678">
        <ele>1933</ele>
        <time>2021-08-21T13:22:26Z</time>
      </trkpt>
      <trkpt lat="44.37218" lon="6.39675">
        <ele>1929.8000488281</ele>
        <time>2021-08-21T13:22:42Z</time>
      </trkpt>
      <trkpt lat="44.37208" lon="6.39681">
        <ele>1926.8000488281</ele>
        <time>2021-08-21T13:22:59Z</time>
      </trkpt>
      <trkpt lat="44.37208" lon="6.39692">
        <ele>1925.4000244141</ele>
        <time>2021-08-21T13:23:09Z</time>
      </trkpt>
      <trkpt lat="44.37201" lon="6.39704">
        <ele>1923.8000488281</ele>
        <time>2021-08-21T13:23:29Z</time>
      </trkpt>
      <trkpt lat="44.37188" lon="6.39701">
        <ele>1922.4000244141</ele>
        <time>2021-08-21T13:23:54Z</time>
      </trkpt>
      <trkpt lat="44.37178" lon="6.39702">
        <ele>1921.1999511719</ele>
        <time>2021-08-21T13:24:15Z</time>
      </trkpt>
      <trkpt lat="44.37165" lon="6.39698">
        <ele>1919.4000244141</ele>
        <time>2021-08-21T13:24:36Z</time>
      </trkpt>
      <trkpt lat="44.37152" lon="6.39693">
        <ele>1916.1999511719</ele>
        <time>2021-08-21T13:24:53Z</time>
      </trkpt>
      <trkpt lat="44.37143" lon="6.39705">
        <ele>1913.1999511719</ele>
        <time>2021-08-21T13:25:11Z</time>
      </trkpt>
      <trkpt lat="44.37128" lon="6.39699">
        <ele>1910.1999511719</ele>
        <time>2021-08-21T13:25:36Z</time>
      </trkpt>
      <trkpt lat="44.3712" lon="6.39693">
        <ele>1907</ele>
        <time>2021-08-21T13:25:56Z</time>
      </trkpt>
      <trkpt lat="44.37108" lon="6.39689">
        <ele>1904</ele>
        <time>2021-08-21T13:26:13Z</time>
      </trkpt>
      <trkpt lat="44.37098" lon="6.39696">
        <ele>1901</ele>
        <time>2021-08-21T13:26:30Z</time>
      </trkpt>
      <trkpt lat="44.37083" lon="6.39701">
        <ele>1898</ele>
        <time>2021-08-21T13:26:46Z</time>
      </trkpt>
      <trkpt lat="44.37068" lon="6.397">
        <ele>1894.8000488281</ele>
        <time>2021-08-21T13:27:06Z</time>
      </trkpt>
      <trkpt lat="44.37055" lon="6.39704">
        <ele>1891.8000488281</ele>
        <time>2021-08-21T13:27:22Z</time>
      </trkpt>
      <trkpt lat="44.37052" lon="6.3971">
        <ele>1890.5999755859</ele>
        <time>2021-08-21T13:27:30Z</time>
      </trkpt>
      <trkpt lat="44.37046" lon="6.39717">
        <ele>1888</ele>
        <time>2021-08-21T13:27:51Z</time>
      </trkpt>
      <trkpt lat="44.37043" lon="6.39712">
        <ele>1888</ele>
        <time>2021-08-21T13:28:29Z</time>
      </trkpt>
      <trkpt lat="44.37025" lon="6.39715">
        <ele>1885.4000244141</ele>
        <time>2021-08-21T13:28:54Z</time>
      </trkpt>
      <trkpt lat="44.37014" lon="6.39724">
        <ele>1882.4000244141</ele>
        <time>2021-08-21T13:29:11Z</time>
      </trkpt>
      <trkpt lat="44.37002" lon="6.39738">
        <ele>1879.1999511719</ele>
        <time>2021-08-21T13:29:29Z</time>
      </trkpt>
      <trkpt lat="44.36993" lon="6.39759">
        <ele>1876.1999511719</ele>
        <time>2021-08-21T13:29:48Z</time>
      </trkpt>
      <trkpt lat="44.3698" lon="6.39759">
        <ele>1873.8000488281</ele>
        <time>2021-08-21T13:30:09Z</time>
      </trkpt>
      <trkpt lat="44.36964" lon="6.39751">
        <ele>1870.8000488281</ele>
        <time>2021-08-21T13:30:28Z</time>
      </trkpt>
      <trkpt lat="44.36953" lon="6.39759">
        <ele>1867.8000488281</ele>
        <time>2021-08-21T13:30:42Z</time>
      </trkpt>
      <trkpt lat="44.36938" lon="6.39774">
        <ele>1864.8000488281</ele>
        <time>2021-08-21T13:30:59Z</time>
      </trkpt>
      <trkpt lat="44.36926" lon="6.39789">
        <ele>1861.5999755859</ele>
        <time>2021-08-21T13:31:20Z</time>
      </trkpt>
      <trkpt lat="44.36915" lon="6.3977">
        <ele>1858.4000244141</ele>
        <time>2021-08-21T13:31:42Z</time>
      </trkpt>
      <trkpt lat="44.36908" lon="6.39756">
        <ele>1855.4000244141</ele>
        <time>2021-08-21T13:31:58Z</time>
      </trkpt>
      <trkpt lat="44.3689" lon="6.39755">
        <ele>1852.1999511719</ele>
        <time>2021-08-21T13:32:16Z</time>
      </trkpt>
      <trkpt lat="44.36875" lon="6.39758">
        <ele>1849.4000244141</ele>
        <time>2021-08-21T13:32:32Z</time>
      </trkpt>
      <trkpt lat="44.36863" lon="6.39765">
        <ele>1846.4000244141</ele>
        <time>2021-08-21T13:32:48Z</time>
      </trkpt>
      <trkpt lat="44.36848" lon="6.39754">
        <ele>1843.4000244141</ele>
        <time>2021-08-21T13:33:06Z</time>
      </trkpt>
      <trkpt lat="44.36834" lon="6.39745">
        <ele>1840.1999511719</ele>
        <time>2021-08-21T13:33:23Z</time>
      </trkpt>
      <trkpt lat="44.36824" lon="6.39736">
        <ele>1837.1999511719</ele>
        <time>2021-08-21T13:33:37Z</time>
      </trkpt>
      <trkpt lat="44.36815" lon="6.39726">
        <ele>1834</ele>
        <time>2021-08-21T13:33:53Z</time>
      </trkpt>
      <trkpt lat="44.36805" lon="6.39716">
        <ele>1831</ele>
        <time>2021-08-21T13:34:09Z</time>
      </trkpt>
      <trkpt lat="44.36792" lon="6.3971">
        <ele>1827.8000488281</ele>
        <time>2021-08-21T13:34:26Z</time>
      </trkpt>
      <trkpt lat="44.36779" lon="6.39693">
        <ele>1824.8000488281</ele>
        <time>2021-08-21T13:34:44Z</time>
      </trkpt>
      <trkpt lat="44.36775" lon="6.39686">
        <ele>1824</ele>
        <time>2021-08-21T13:34:50Z</time>
      </trkpt>
      <trkpt lat="44.36769" lon="6.39676">
        <ele>1820.5999755859</ele>
        <time>2021-08-21T13:35:03Z</time>
      </trkpt>
      <trkpt lat="44.36764" lon="6.39656">
        <ele>1818.8000488281</ele>
        <time>2021-08-21T13:35:25Z</time>
      </trkpt>
      <trkpt lat="44.36759" lon="6.39642">
        <ele>1815.8000488281</ele>
        <time>2021-08-21T13:35:40Z</time>
      </trkpt>
      <trkpt lat="44.36753" lon="6.39623">
        <ele>1812.5999755859</ele>
        <time>2021-08-21T13:35:56Z</time>
      </trkpt>
      <trkpt lat="44.36745" lon="6.39602">
        <ele>1809.5999755859</ele>
        <time>2021-08-21T13:36:13Z</time>
      </trkpt>
      <trkpt lat="44.36739" lon="6.39578">
        <ele>1806.4000244141</ele>
        <time>2021-08-21T13:36:29Z</time>
      </trkpt>
      <trkpt lat="44.36735" lon="6.39565">
        <ele>1803.4000244141</ele>
        <time>2021-08-21T13:36:42Z</time>
      </trkpt>
      <trkpt lat="44.36725" lon="6.39547">
        <ele>1800.4000244141</ele>
        <time>2021-08-21T13:36:58Z</time>
      </trkpt>
      <trkpt lat="44.36715" lon="6.39534">
        <ele>1797.4000244141</ele>
        <time>2021-08-21T13:37:14Z</time>
      </trkpt>
      <trkpt lat="44.36702" lon="6.39522">
        <ele>1794.4000244141</ele>
        <time>2021-08-21T13:37:30Z</time>
      </trkpt>
      <trkpt lat="44.36686" lon="6.39513">
        <ele>1791.8000488281</ele>
        <time>2021-08-21T13:37:49Z</time>
      </trkpt>
      <trkpt lat="44.36669" lon="6.39515">
        <ele>1788.8000488281</ele>
        <time>2021-08-21T13:38:06Z</time>
      </trkpt>
      <trkpt lat="44.36658" lon="6.39525">
        <ele>1786.8000488281</ele>
        <time>2021-08-21T13:38:16Z</time>
      </trkpt>
      <trkpt lat="44.3664" lon="6.39546">
        <ele>1784.1999511719</ele>
        <time>2021-08-21T13:38:34Z</time>
      </trkpt>
      <trkpt lat="44.36636" lon="6.39567">
        <ele>1783.4000244141</ele>
        <time>2021-08-21T13:38:47Z</time>
      </trkpt>
      <trkpt lat="44.36623" lon="6.39581">
        <ele>1786.4000244141</ele>
        <time>2021-08-21T13:39:13Z</time>
      </trkpt>
      <trkpt lat="44.36612" lon="6.39591">
        <ele>1787.1999511719</ele>
        <time>2021-08-21T13:39:34Z</time>
      </trkpt>
      <trkpt lat="44.36599" lon="6.39588">
        <ele>1790.1999511719</ele>
        <time>2021-08-21T13:39:55Z</time>
      </trkpt>
      <trkpt lat="44.36584" lon="6.39608">
        <ele>1792.1999511719</ele>
        <time>2021-08-21T13:40:17Z</time>
      </trkpt>
      <trkpt lat="44.36579" lon="6.39635">
        <ele>1794</ele>
        <time>2021-08-21T13:40:39Z</time>
      </trkpt>
      <trkpt lat="44.36573" lon="6.39659">
        <ele>1796.1999511719</ele>
        <time>2021-08-21T13:41:01Z</time>
      </trkpt>
      <trkpt lat="44.36567" lon="6.39687">
        <ele>1798.4000244141</ele>
        <time>2021-08-21T13:41:28Z</time>
      </trkpt>
      <trkpt lat="44.36549" lon="6.39712">
        <ele>1801</ele>
        <time>2021-08-21T13:41:58Z</time>
      </trkpt>
      <trkpt lat="44.36534" lon="6.39709">
        <ele>1802.5999755859</ele>
        <time>2021-08-21T13:42:17Z</time>
      </trkpt>
      <trkpt lat="44.3652" lon="6.39697">
        <ele>1804</ele>
        <time>2021-08-21T13:42:38Z</time>
      </trkpt>
      <trkpt lat="44.36509" lon="6.39675">
        <ele>1805.5999755859</ele>
        <time>2021-08-21T13:42:58Z</time>
      </trkpt>
      <trkpt lat="44.36497" lon="6.39641">
        <ele>1808.1999511719</ele>
        <time>2021-08-21T13:43:23Z</time>
      </trkpt>
      <trkpt lat="44.36492" lon="6.39634">
        <ele>1809.1999511719</ele>
        <time>2021-08-21T13:43:30Z</time>
      </trkpt>
      <trkpt lat="44.36491" lon="6.39631">
        <ele>1809.4000244141</ele>
        <time>2021-08-21T13:43:32Z</time>
      </trkpt>
      <trkpt lat="44.36482" lon="6.39615">
        <ele>1810.8000488281</ele>
        <time>2021-08-21T13:43:47Z</time>
      </trkpt>
      <trkpt lat="44.36472" lon="6.39585">
        <ele>1813</ele>
        <time>2021-08-21T13:44:10Z</time>
      </trkpt>
      <trkpt lat="44.36462" lon="6.3957">
        <ele>1815.1999511719</ele>
        <time>2021-08-21T13:44:26Z</time>
      </trkpt>
      <trkpt lat="44.36451" lon="6.39556">
        <ele>1816.8000488281</ele>
        <time>2021-08-21T13:44:42Z</time>
      </trkpt>
      <trkpt lat="44.36442" lon="6.39544">
        <ele>1818.4000244141</ele>
        <time>2021-08-21T13:44:56Z</time>
      </trkpt>
      <trkpt lat="44.36431" lon="6.39536">
        <ele>1820</ele>
        <time>2021-08-21T13:45:10Z</time>
      </trkpt>
      <trkpt lat="44.36415" lon="6.39534">
        <ele>1822.1999511719</ele>
        <time>2021-08-21T13:45:32Z</time>
      </trkpt>
      <trkpt lat="44.36403" lon="6.39536">
        <ele>1823</ele>
        <time>2021-08-21T13:45:48Z</time>
      </trkpt>
      <trkpt lat="44.36389" lon="6.39543">
        <ele>1825.1999511719</ele>
        <time>2021-08-21T13:46:07Z</time>
      </trkpt>
      <trkpt lat="44.3637" lon="6.39548">
        <ele>1827.5999755859</ele>
        <time>2021-08-21T13:46:27Z</time>
      </trkpt>
      <trkpt lat="44.36352" lon="6.39546">
        <ele>1828.5999755859</ele>
        <time>2021-08-21T13:46:43Z</time>
      </trkpt>
      <trkpt lat="44.36338" lon="6.39543">
        <ele>1826.8000488281</ele>
        <time>2021-08-21T13:47:00Z</time>
      </trkpt>
      <trkpt lat="44.36324" lon="6.39538">
        <ele>1824.5999755859</ele>
        <time>2021-08-21T13:47:17Z</time>
      </trkpt>
      <trkpt lat="44.36311" lon="6.39531">
        <ele>1822</ele>
        <time>2021-08-21T13:47:34Z</time>
      </trkpt>
      <trkpt lat="44.36309" lon="6.39531">
        <ele>1821.1999511719</ele>
        <time>2021-08-21T13:47:38Z</time>
      </trkpt>
      <trkpt lat="44.36305" lon="6.39532">
        <ele>1818.4000244141</ele>
        <time>2021-08-21T13:47:57Z</time>
      </trkpt>
      <trkpt lat="44.36303" lon="6.39534">
        <ele>1818</ele>
        <time>2021-08-21T13:48:23Z</time>
      </trkpt>
      <trkpt lat="44.36291" lon="6.39533">
        <ele>1816.4000244141</ele>
        <time>2021-08-21T13:48:43Z</time>
      </trkpt>
      <trkpt lat="44.3628" lon="6.39534">
        <ele>1814.5999755859</ele>
        <time>2021-08-21T13:48:52Z</time>
      </trkpt>
      <trkpt lat="44.36265" lon="6.39536">
        <ele>1811.1999511719</ele>
        <time>2021-08-21T13:49:08Z</time>
      </trkpt>
      <trkpt lat="44.36256" lon="6.39537">
        <ele>1808.1999511719</ele>
        <time>2021-08-21T13:49:19Z</time>
      </trkpt>
      <trkpt lat="44.36242" lon="6.39538">
        <ele>1805</ele>
        <time>2021-08-21T13:49:32Z</time>
      </trkpt>
      <trkpt lat="44.36229" lon="6.39546">
        <ele>1802</ele>
        <time>2021-08-21T13:49:47Z</time>
      </trkpt>
      <trkpt lat="44.36216" lon="6.3955">
        <ele>1798.8000488281</ele>
        <time>2021-08-21T13:50:00Z</time>
      </trkpt>
      <trkpt lat="44.36208" lon="6.39558">
        <ele>1796.1999511719</ele>
        <time>2021-08-21T13:50:24Z</time>
      </trkpt>
      <trkpt lat="44.36187" lon="6.39561">
        <ele>1794</ele>
        <time>2021-08-21T13:50:45Z</time>
      </trkpt>
      <trkpt lat="44.3618" lon="6.39569">
        <ele>1793</ele>
        <time>2021-08-21T13:50:53Z</time>
      </trkpt>
      <trkpt lat="44.36164" lon="6.3958">
        <ele>1791.5999755859</ele>
        <time>2021-08-21T13:51:07Z</time>
      </trkpt>
      <trkpt lat="44.36152" lon="6.39591">
        <ele>1790.1999511719</ele>
        <time>2021-08-21T13:51:22Z</time>
      </trkpt>
      <trkpt lat="44.36144" lon="6.39608">
        <ele>1789.4000244141</ele>
        <time>2021-08-21T13:51:34Z</time>
      </trkpt>
      <trkpt lat="44.36144" lon="6.39612">
        <ele>1789.4000244141</ele>
        <time>2021-08-21T13:51:36Z</time>
      </trkpt>
      <trkpt lat="44.36143" lon="6.39617">
        <ele>1789.1999511719</ele>
        <time>2021-08-21T13:51:38Z</time>
      </trkpt>
      <trkpt lat="44.36141" lon="6.39624">
        <ele>1788.5999755859</ele>
        <time>2021-08-21T13:51:42Z</time>
      </trkpt>
      <trkpt lat="44.36131" lon="6.39643">
        <ele>1787.1999511719</ele>
        <time>2021-08-21T13:51:56Z</time>
      </trkpt>
      <trkpt lat="44.36128" lon="6.3965">
        <ele>1786.5999755859</ele>
        <time>2021-08-21T13:52:01Z</time>
      </trkpt>
      <trkpt lat="44.36121" lon="6.39664">
        <ele>1785.8000488281</ele>
        <time>2021-08-21T13:52:10Z</time>
      </trkpt>
      <trkpt lat="44.36109" lon="6.39682">
        <ele>1783.8000488281</ele>
        <time>2021-08-21T13:52:27Z</time>
      </trkpt>
      <trkpt lat="44.36094" lon="6.39709">
        <ele>1781.8000488281</ele>
        <time>2021-08-21T13:52:49Z</time>
      </trkpt>
      <trkpt lat="44.36088" lon="6.3974">
        <ele>1779.4000244141</ele>
        <time>2021-08-21T13:53:12Z</time>
      </trkpt>
      <trkpt lat="44.36089" lon="6.39781">
        <ele>1776.4000244141</ele>
        <time>2021-08-21T13:53:36Z</time>
      </trkpt>
      <trkpt lat="44.36084" lon="6.39788">
        <ele>1775.4000244141</ele>
        <time>2021-08-21T13:53:41Z</time>
      </trkpt>
      <trkpt lat="44.36073" lon="6.39788">
        <ele>1773.4000244141</ele>
        <time>2021-08-21T13:53:50Z</time>
      </trkpt>
      <trkpt lat="44.3607" lon="6.39784">
        <ele>1772.5999755859</ele>
        <time>2021-08-21T13:53:54Z</time>
      </trkpt>
      <trkpt lat="44.36064" lon="6.39773">
        <ele>1771</ele>
        <time>2021-08-21T13:54:09Z</time>
      </trkpt>
      <trkpt lat="44.3605" lon="6.39759">
        <ele>1769.4000244141</ele>
        <time>2021-08-21T13:54:25Z</time>
      </trkpt>
      <trkpt lat="44.36039" lon="6.39751">
        <ele>1767.5999755859</ele>
        <time>2021-08-21T13:54:38Z</time>
      </trkpt>
      <trkpt lat="44.36024" lon="6.39734">
        <ele>1764.8000488281</ele>
        <time>2021-08-21T13:54:55Z</time>
      </trkpt>
      <trkpt lat="44.36024" lon="6.39733">
        <ele>1764.5999755859</ele>
        <time>2021-08-21T13:54:56Z</time>
      </trkpt>
      <trkpt lat="44.36014" lon="6.39704">
        <ele>1761.1999511719</ele>
        <time>2021-08-21T13:55:19Z</time>
      </trkpt>
      <trkpt lat="44.36006" lon="6.39684">
        <ele>1758.1999511719</ele>
        <time>2021-08-21T13:55:36Z</time>
      </trkpt>
      <trkpt lat="44.35998" lon="6.3966">
        <ele>1755.1999511719</ele>
        <time>2021-08-21T13:55:56Z</time>
      </trkpt>
      <trkpt lat="44.35995" lon="6.39632">
        <ele>1752</ele>
        <time>2021-08-21T13:56:16Z</time>
      </trkpt>
      <trkpt lat="44.36001" lon="6.39608">
        <ele>1749</ele>
        <time>2021-08-21T13:56:34Z</time>
      </trkpt>
      <trkpt lat="44.36005" lon="6.39602">
        <ele>1747.8000488281</ele>
        <time>2021-08-21T13:56:41Z</time>
      </trkpt>
      <trkpt lat="44.36007" lon="6.396">
        <ele>1746.4000244141</ele>
        <time>2021-08-21T13:56:47Z</time>
      </trkpt>
      <trkpt lat="44.36013" lon="6.39592">
        <ele>1746</ele>
        <time>2021-08-21T13:57:15Z</time>
      </trkpt>
      <trkpt lat="44.36021" lon="6.39574">
        <ele>1742.8000488281</ele>
        <time>2021-08-21T13:57:28Z</time>
      </trkpt>
      <trkpt lat="44.36032" lon="6.39548">
        <ele>1739.4000244141</ele>
        <time>2021-08-21T13:57:43Z</time>
      </trkpt>
      <trkpt lat="44.36042" lon="6.39519">
        <ele>1736.1999511719</ele>
        <time>2021-08-21T13:58:02Z</time>
      </trkpt>
      <trkpt lat="44.36044" lon="6.39511">
        <ele>1734.5999755859</ele>
        <time>2021-08-21T13:58:07Z</time>
      </trkpt>
      <trkpt lat="44.36046" lon="6.39509">
        <ele>1734.4000244141</ele>
        <time>2021-08-21T13:58:09Z</time>
      </trkpt>
      <trkpt lat="44.36058" lon="6.39486">
        <ele>1731.4000244141</ele>
        <time>2021-08-21T13:58:27Z</time>
      </trkpt>
      <trkpt lat="44.36068" lon="6.39461">
        <ele>1729</ele>
        <time>2021-08-21T13:58:44Z</time>
      </trkpt>
      <trkpt lat="44.36078" lon="6.39438">
        <ele>1727.1999511719</ele>
        <time>2021-08-21T13:59:01Z</time>
      </trkpt>
      <trkpt lat="44.36078" lon="6.39424">
        <ele>1726.8000488281</ele>
        <time>2021-08-21T13:59:12Z</time>
      </trkpt>
      <trkpt lat="44.36086" lon="6.39407">
        <ele>1723.5999755859</ele>
        <time>2021-08-21T13:59:30Z</time>
      </trkpt>
      <trkpt lat="44.36099" lon="6.39378">
        <ele>1720.4000244141</ele>
        <time>2021-08-21T13:59:52Z</time>
      </trkpt>
      <trkpt lat="44.36109" lon="6.39359">
        <ele>1717.4000244141</ele>
        <time>2021-08-21T14:00:15Z</time>
      </trkpt>
      <trkpt lat="44.36108" lon="6.39343">
        <ele>1715.1999511719</ele>
        <time>2021-08-21T14:00:36Z</time>
      </trkpt>
      <trkpt lat="44.36075" lon="6.3935">
        <ele>1712.1999511719</ele>
        <time>2021-08-21T14:01:01Z</time>
      </trkpt>
      <trkpt lat="44.36049" lon="6.39354">
        <ele>1710</ele>
        <time>2021-08-21T14:01:24Z</time>
      </trkpt>
      <trkpt lat="44.3603" lon="6.39356">
        <ele>1709.1999511719</ele>
        <time>2021-08-21T14:01:40Z</time>
      </trkpt>
      <trkpt lat="44.36004" lon="6.39359">
        <ele>1707.1999511719</ele>
        <time>2021-08-21T14:02:03Z</time>
      </trkpt>
      <trkpt lat="44.3598" lon="6.39372">
        <ele>1705.5999755859</ele>
        <time>2021-08-21T14:02:25Z</time>
      </trkpt>
      <trkpt lat="44.35971" lon="6.39396">
        <ele>1704.8000488281</ele>
        <time>2021-08-21T14:02:43Z</time>
      </trkpt>
      <trkpt lat="44.35957" lon="6.39422">
        <ele>1704</ele>
        <time>2021-08-21T14:03:03Z</time>
      </trkpt>
      <trkpt lat="44.35942" lon="6.39441">
        <ele>1703.8000488281</ele>
        <time>2021-08-21T14:03:22Z</time>
      </trkpt>
      <trkpt lat="44.35926" lon="6.39458">
        <ele>1702</ele>
        <time>2021-08-21T14:03:41Z</time>
      </trkpt>
      <trkpt lat="44.35916" lon="6.39466">
        <ele>1701.4000244141</ele>
        <time>2021-08-21T14:03:56Z</time>
      </trkpt>
      <trkpt lat="44.35903" lon="6.39475">
        <ele>1699</ele>
        <time>2021-08-21T14:04:12Z</time>
      </trkpt>
      <trkpt lat="44.35885" lon="6.39482">
        <ele>1697</ele>
        <time>2021-08-21T14:04:31Z</time>
      </trkpt>
      <trkpt lat="44.3587" lon="6.39475">
        <ele>1694.8000488281</ele>
        <time>2021-08-21T14:04:51Z</time>
      </trkpt>
      <trkpt lat="44.35883" lon="6.39456">
        <ele>1692.1999511719</ele>
        <time>2021-08-21T14:05:14Z</time>
      </trkpt>
      <trkpt lat="44.3588" lon="6.39443">
        <ele>1689</ele>
        <time>2021-08-21T14:05:35Z</time>
      </trkpt>
      <trkpt lat="44.35855" lon="6.39436">
        <ele>1686</ele>
        <time>2021-08-21T14:06:00Z</time>
      </trkpt>
      <trkpt lat="44.35837" lon="6.39435">
        <ele>1683.5999755859</ele>
        <time>2021-08-21T14:06:21Z</time>
      </trkpt>
      <trkpt lat="44.35835" lon="6.39436">
        <ele>1683.1999511719</ele>
        <time>2021-08-21T14:06:23Z</time>
      </trkpt>
      <trkpt lat="44.3582" lon="6.39427">
        <ele>1680.8000488281</ele>
        <time>2021-08-21T14:06:46Z</time>
      </trkpt>
      <trkpt lat="44.35834" lon="6.39409">
        <ele>1677.8000488281</ele>
        <time>2021-08-21T14:07:08Z</time>
      </trkpt>
      <trkpt lat="44.35849" lon="6.39402">
        <ele>1674.8000488281</ele>
        <time>2021-08-21T14:07:26Z</time>
      </trkpt>
      <trkpt lat="44.35868" lon="6.39393">
        <ele>1671.8000488281</ele>
        <time>2021-08-21T14:07:47Z</time>
      </trkpt>
      <trkpt lat="44.35891" lon="6.39385">
        <ele>1669.1999511719</ele>
        <time>2021-08-21T14:08:09Z</time>
      </trkpt>
      <trkpt lat="44.35907" lon="6.39364">
        <ele>1668.4000244141</ele>
        <time>2021-08-21T14:08:36Z</time>
      </trkpt>
      <trkpt lat="44.35905" lon="6.3934">
        <ele>1665</ele>
        <time>2021-08-21T14:08:57Z</time>
      </trkpt>
      <trkpt lat="44.35906" lon="6.39314">
        <ele>1662</ele>
        <time>2021-08-21T14:09:16Z</time>
      </trkpt>
      <trkpt lat="44.35902" lon="6.39295">
        <ele>1659</ele>
        <time>2021-08-21T14:09:35Z</time>
      </trkpt>
      <trkpt lat="44.35887" lon="6.39301">
        <ele>1656</ele>
        <time>2021-08-21T14:09:58Z</time>
      </trkpt>
      <trkpt lat="44.35872" lon="6.39298">
        <ele>1653</ele>
        <time>2021-08-21T14:10:15Z</time>
      </trkpt>
      <trkpt lat="44.35861" lon="6.3929">
        <ele>1650.5999755859</ele>
        <time>2021-08-21T14:10:34Z</time>
      </trkpt>
      <trkpt lat="44.35872" lon="6.39263">
        <ele>1647.5999755859</ele>
        <time>2021-08-21T14:10:55Z</time>
      </trkpt>
      <trkpt lat="44.35878" lon="6.39238">
        <ele>1644.5999755859</ele>
        <time>2021-08-21T14:11:13Z</time>
      </trkpt>
      <trkpt lat="44.35872" lon="6.39226">
        <ele>1641.4000244141</ele>
        <time>2021-08-21T14:11:29Z</time>
      </trkpt>
      <trkpt lat="44.35855" lon="6.39225">
        <ele>1638.4000244141</ele>
        <time>2021-08-21T14:11:46Z</time>
      </trkpt>
      <trkpt lat="44.35864" lon="6.39208">
        <ele>1635.4000244141</ele>
        <time>2021-08-21T14:12:05Z</time>
      </trkpt>
      <trkpt lat="44.35869" lon="6.39185">
        <ele>1632.1999511719</ele>
        <time>2021-08-21T14:12:26Z</time>
      </trkpt>
      <trkpt lat="44.35875" lon="6.39166">
        <ele>1629</ele>
        <time>2021-08-21T14:12:46Z</time>
      </trkpt>
      <trkpt lat="44.35889" lon="6.3915">
        <ele>1625.8000488281</ele>
        <time>2021-08-21T14:13:05Z</time>
      </trkpt>
      <trkpt lat="44.35896" lon="6.39116">
        <ele>1622.8000488281</ele>
        <time>2021-08-21T14:13:24Z</time>
      </trkpt>
      <trkpt lat="44.35899" lon="6.39093">
        <ele>1620</ele>
        <time>2021-08-21T14:13:45Z</time>
      </trkpt>
      <trkpt lat="44.35882" lon="6.39106">
        <ele>1618.1999511719</ele>
        <time>2021-08-21T14:14:04Z</time>
      </trkpt>
      <trkpt lat="44.3586" lon="6.3912">
        <ele>1616.8000488281</ele>
        <time>2021-08-21T14:14:28Z</time>
      </trkpt>
      <trkpt lat="44.35828" lon="6.39129">
        <ele>1615.4000244141</ele>
        <time>2021-08-21T14:14:51Z</time>
      </trkpt>
      <trkpt lat="44.35827" lon="6.39137">
        <ele>1616.1999511719</ele>
        <time>2021-08-21T14:15:13Z</time>
      </trkpt>
      <trkpt lat="44.35829" lon="6.39136">
        <ele>1616</ele>
        <time>2021-08-21T14:15:40Z</time>
      </trkpt>
    </trkseg>
  </trk>
</gpx>